Observation data for Estelline on 08/06/2020      Previous  Date       Current Mesonet Observations  Soil Data  Daily Summary Page  Observations in Plain Language
KES1 060500Z 11009KT 26/19 A2997 RMK A01 T02580192  RH  067%=      5-min Rain = 0
KES1 060501Z 12008KT 26/19 A2997 RMK A01 T02580192  RH  067%=      5-min Rain = 0
KES1 060502Z 12009KT 26/19 A2997 RMK A01 T02580192  RH  067%=      5-min Rain = 0
KES1 060503Z 12009KT 26/19 A2997 RMK A01 T02570192  RH  067%=      5-min Rain = 0
KES1 060504Z 11011KT 26/19 A2997 RMK A01 T02570192  RH  067%=      5-min Rain = 0
KES1 060505Z 12008KT 26/19 A2997 RMK A01 T02570192  RH  067%=      5-min Rain = 0
KES1 060506Z 12008KT 26/19 A2997 RMK A01 T02570193  RH  067%=      5-min Rain = 0
KES1 060507Z 12008KT 26/19 A2997 RMK A01 T02570193  RH  068%=      5-min Rain = 0
KES1 060508Z 11011KT 26/19 A2997 RMK A01 T02570193  RH  068%=      5-min Rain = 0
KES1 060509Z 12008KT 26/19 A2997 RMK A01 T02570193  RH  068%=      5-min Rain = 0
KES1 060510Z 11007KT 26/19 A2997 RMK A01 T02570193  RH  068%=      5-min Rain = 0
KES1 060511Z 11008KT 26/19 A2997 RMK A01 T02560193  RH  068%=      5-min Rain = 0
KES1 060512Z 10007KT 26/19 A2997 RMK A01 T02570193  RH  068%=      5-min Rain = 0
KES1 060513Z 11008KT 26/19 A2997 RMK A01 T02560193  RH  068%=      5-min Rain = 0
KES1 060514Z 11007KT 26/19 A2997 RMK A01 T02560193  RH  068%=      5-min Rain = 0
KES1 060515Z 10009KT 26/19 A2997 RMK A01 T02560193  RH  068%=      5-min Rain = 0
KES1 060516Z 11009KT 26/19 A2997 RMK A01 T02560193  RH  068%=      5-min Rain = 0
KES1 060517Z 11011KT 26/19 A2997 RMK A01 T02560194  RH  068%=      5-min Rain = 0
KES1 060518Z 11010KT 26/19 A2997 RMK A01 T02560194  RH  069%=      5-min Rain = 0
KES1 060519Z 11010KT 26/19 A2997 RMK A01 T02560194  RH  069%=      5-min Rain = 0
KES1 060520Z 11007KT 26/19 A2997 RMK A01 T02560194  RH  069%=      5-min Rain = 0
KES1 060521Z 11007KT 26/19 A2997 RMK A01 T02550193  RH  069%=      5-min Rain = 0
KES1 060522Z 10008KT 26/19 A2997 RMK A01 T02550194  RH  069%=      5-min Rain = 0
KES1 060523Z 11008KT 26/19 A2997 RMK A01 T02550194  RH  069%=      5-min Rain = 0
KES1 060524Z 11010KT 25/19 A2997 RMK A01 T02540194  RH  069%=      5-min Rain = 0
KES1 060525Z 12009KT 25/19 A2997 RMK A01 T02540194  RH  069%=      5-min Rain = 0
KES1 060526Z 12009KT 25/19 A2997 RMK A01 T02540194  RH  069%=      5-min Rain = 0
KES1 060527Z 10008KT 25/19 A2997 RMK A01 T02540194  RH  069%=      5-min Rain = 0
KES1 060528Z 12010KT 25/19 A2997 RMK A01 T02540194  RH  069%=      5-min Rain = 0
KES1 060529Z 12010KT 25/19 A2997 RMK A01 T02540194  RH  070%=      5-min Rain = 0
KES1 060530Z 12009KT 25/19 A2997 RMK A01 T02540194  RH  070%=      5-min Rain = 0
KES1 060531Z 11008KT 25/20 A2997 RMK A01 T02540195  RH  069%=      5-min Rain = 0
KES1 060532Z 12007KT 25/19 A2997 RMK A01 T02540194  RH  070%=      5-min Rain = 0
KES1 060533Z 12008KT 25/19 A2997 RMK A01 T02530194  RH  070%=      5-min Rain = 0
KES1 060534Z 12008KT 25/19 A2997 RMK A01 T02530194  RH  070%=      5-min Rain = 0
KES1 060535Z 12010KT 25/19 A2997 RMK A01 T02530194  RH  070%=      5-min Rain = 0
KES1 060536Z 11009KT 25/19 A2997 RMK A01 T02530194  RH  070%=      5-min Rain = 0
KES1 060537Z 11009KT 25/19 A2997 RMK A01 T02530194  RH  070%=      5-min Rain = 0
KES1 060538Z 12011KT 25/19 A2997 RMK A01 T02530194  RH  070%=      5-min Rain = 0
KES1 060539Z 12009KT 25/20 A2997 RMK A01 T02530195  RH  070%=      5-min Rain = 0
KES1 060540Z 12009KT 25/19 A2997 RMK A01 T02520194  RH  070%=      5-min Rain = 0
KES1 060541Z 11008KT 25/19 A2997 RMK A01 T02530194  RH  070%=      5-min Rain = 0
KES1 060542Z 11009KT 25/20 A2997 RMK A01 T02530195  RH  070%=      5-min Rain = 0
KES1 060543Z 11009KT 25/20 A2997 RMK A01 T02530195  RH  070%=      5-min Rain = 0
KES1 060544Z 10010KT 25/19 A2997 RMK A01 T02520194  RH  070%=      5-min Rain = 0
KES1 060545Z 12009KT 25/20 A2997 RMK A01 T02520195  RH  070%=      5-min Rain = 0
KES1 060546Z 11008KT 25/20 A2997 RMK A01 T02520195  RH  070%=      5-min Rain = 0
KES1 060547Z 11010KT 25/20 A2997 RMK A01 T02520195  RH  070%=      5-min Rain = 0
KES1 060548Z 11009KT 25/20 A2997 RMK A01 T02520195  RH  070%=      5-min Rain = 0
KES1 060549Z 11009KT 25/20 A2997 RMK A01 T02520195  RH  071%=      5-min Rain = 0
KES1 060550Z 12009KT 25/20 A2997 RMK A01 T02520195  RH  071%=      5-min Rain = 0
KES1 060551Z 11009KT 25/20 A2997 RMK A01 T02520195  RH  071%=      5-min Rain = 0
KES1 060552Z 11009KT 25/20 A2997 RMK A01 T02520195  RH  071%=      5-min Rain = 0
KES1 060553Z 11010KT 25/20 A2997 RMK A01 T02530196  RH  071%=      5-min Rain = 0
KES1 060554Z 11010KT 25/20 A2997 RMK A01 T02520195  RH  071%=      5-min Rain = 0
KES1 060555Z 11009KT 25/20 A2997 RMK A01 T02520195  RH  071%=      5-min Rain = 0
KES1 060556Z 12008KT 25/20 A2997 RMK A01 T02520195  RH  071%=      5-min Rain = 0
KES1 060557Z 12008KT 25/20 A2997 RMK A01 T02520195  RH  071%=      5-min Rain = 0
KES1 060558Z 12009KT 25/20 A2997 RMK A01 T02510195  RH  071%=      5-min Rain = 0
KES1 060559Z 11007KT 25/20 A2997 RMK A01 T02510195  RH  071%=      5-min Rain = 0
KES1 060600Z 12008KT 25/20 A2997 RMK A01 T02510196  RH  071%=      5-min Rain = 0
KES1 060601Z 12009KT 25/20 A2997 RMK A01 T02510195  RH  071%=      5-min Rain = 0
KES1 060602Z 12008KT 25/20 A2997 RMK A01 T02510196  RH  071%=      5-min Rain = 0
KES1 060603Z 11009KT 25/20 A2997 RMK A01 T02510196  RH  071%=      5-min Rain = 0
KES1 060604Z 11009KT 25/20 A2997 RMK A01 T02510196  RH  072%=      5-min Rain = 0
KES1 060605Z 11010KT 25/20 A2997 RMK A01 T02510196  RH  072%=      5-min Rain = 0
KES1 060606Z 12008KT 25/20 A2997 RMK A01 T02510196  RH  071%=      5-min Rain = 0
KES1 060607Z 12008KT 25/20 A2997 RMK A01 T02510196  RH  071%=      5-min Rain = 0
KES1 060608Z 12009KT 25/20 A2997 RMK A01 T02510196  RH  072%=      5-min Rain = 0
KES1 060609Z 12006KT 25/20 A2996 RMK A01 T02500196  RH  072%=      5-min Rain = 0
KES1 060610Z 11007KT 25/20 A2996 RMK A01 T02500196  RH  072%=      5-min Rain = 0
KES1 060611Z 11009KT 25/20 A2997 RMK A01 T02500197  RH  072%=      5-min Rain = 0
KES1 060612Z 12007KT 25/20 A2997 RMK A01 T02500196  RH  072%=      5-min Rain = 0
KES1 060613Z 11007KT 25/20 A2997 RMK A01 T02500196  RH  072%=      5-min Rain = 0
KES1 060614Z 11008KT 25/20 A2997 RMK A01 T02500196  RH  072%=      5-min Rain = 0
KES1 060615Z 11008KT 25/20 A2997 RMK A01 T02490196  RH  072%=      5-min Rain = 0
KES1 060616Z 12008KT 25/20 A2997 RMK A01 T02500196  RH  072%=      5-min Rain = 0
KES1 060617Z 11008KT 25/20 A2997 RMK A01 T02500196  RH  072%=      5-min Rain = 0
KES1 060618Z 11008KT 25/20 A2996 RMK A01 T02500196  RH  072%=      5-min Rain = 0
KES1 060619Z 11008KT 25/20 A2996 RMK A01 T02500196  RH  072%=      5-min Rain = 0
KES1 060620Z 12008KT 25/20 A2996 RMK A01 T02500197  RH  072%=      5-min Rain = 0
KES1 060621Z 11007KT 25/20 A2997 RMK A01 T02500197  RH  072%=      5-min Rain = 0
KES1 060622Z 11008KT 25/20 A2997 RMK A01 T02500197  RH  072%=      5-min Rain = 0
KES1 060623Z 11008KT 25/20 A2996 RMK A01 T02490197  RH  072%=      5-min Rain = 0
KES1 060624Z 11007KT 25/20 A2996 RMK A01 T02490197  RH  073%=      5-min Rain = 0
KES1 060625Z 11007KT 25/20 A2996 RMK A01 T02490197  RH  073%=      5-min Rain = 0
KES1 060626Z 11009KT 25/20 A2996 RMK A01 T02490197  RH  073%=      5-min Rain = 0
KES1 060627Z 11008KT 25/20 A2996 RMK A01 T02490197  RH  073%=      5-min Rain = 0
KES1 060628Z 11006KT 25/20 A2996 RMK A01 T02490197  RH  073%=      5-min Rain = 0
KES1 060629Z 11008KT 25/20 A2996 RMK A01 T02490197  RH  073%=      5-min Rain = 0
KES1 060630Z 11007KT 25/20 A2996 RMK A01 T02480197  RH  073%=      5-min Rain = 0
KES1 060631Z 11006KT 25/20 A2996 RMK A01 T02490197  RH  073%=      5-min Rain = 0
KES1 060632Z 10007KT 25/20 A2996 RMK A01 T02480197  RH  073%=      5-min Rain = 0
KES1 060633Z 11008KT 25/20 A2996 RMK A01 T02480197  RH  073%=      5-min Rain = 0
KES1 060634Z 11007KT 25/20 A2996 RMK A01 T02480197  RH  073%=      5-min Rain = 0
KES1 060635Z 11006KT 25/20 A2996 RMK A01 T02480197  RH  073%=      5-min Rain = 0
KES1 060636Z 11006KT 25/20 A2996 RMK A01 T02480197  RH  073%=      5-min Rain = 0
KES1 060637Z 10007KT 25/20 A2996 RMK A01 T02470197  RH  074%=      5-min Rain = 0
KES1 060638Z 10007KT 25/20 A2996 RMK A01 T02470197  RH  074%=      5-min Rain = 0
KES1 060639Z 10008KT 25/20 A2996 RMK A01 T02470198  RH  074%=      5-min Rain = 0
KES1 060640Z 11009KT 25/20 A2996 RMK A01 T02470197  RH  074%=      5-min Rain = 0
KES1 060641Z 10008G13KT 25/20 A2996 RMK A01 T02470197  RH  074%=      5-min Rain = 0
KES1 060642Z 10007KT 25/20 A2996 RMK A01 T02470198  RH  074%=      5-min Rain = 0
KES1 060643Z 10006KT 25/20 A2996 RMK A01 T02470197  RH  074%=      5-min Rain = 0
KES1 060644Z 10009KT 25/20 A2996 RMK A01 T02470198  RH  074%=      5-min Rain = 0
KES1 060645Z 11008KT 25/20 A2996 RMK A01 T02470198  RH  074%=      5-min Rain = 0
KES1 060646Z 10008KT 25/20 A2996 RMK A01 T02470198  RH  074%=      5-min Rain = 0
KES1 060647Z 10008KT 25/20 A2996 RMK A01 T02470198  RH  074%=      5-min Rain = 0
KES1 060648Z 11007KT 25/20 A2995 RMK A01 T02470198  RH  074%=      5-min Rain = 0
KES1 060649Z 11005KT 25/20 A2995 RMK A01 T02470198  RH  074%=      5-min Rain = 0
KES1 060650Z 10008KT 25/20 A2995 RMK A01 T02460198  RH  074%=      5-min Rain = 0
KES1 060651Z 11007KT 25/20 A2995 RMK A01 T02460198  RH  075%=      5-min Rain = 0
KES1 060652Z 10006KT 25/20 A2995 RMK A01 T02460198  RH  075%=      5-min Rain = 0
KES1 060653Z 10006KT 25/20 A2995 RMK A01 T02460198  RH  075%=      5-min Rain = 0
KES1 060654Z 10009KT 25/20 A2995 RMK A01 T02460198  RH  075%=      5-min Rain = 0
KES1 060655Z 11007KT 25/20 A2995 RMK A01 T02460198  RH  075%=      5-min Rain = 0
KES1 060656Z 10008KT 25/20 A2995 RMK A01 T02460198  RH  075%=      5-min Rain = 0
KES1 060657Z 10007KT 25/20 A2995 RMK A01 T02460198  RH  075%=      5-min Rain = 0
KES1 060658Z 10007KT 25/20 A2996 RMK A01 T02460198  RH  075%=      5-min Rain = 0
KES1 060659Z 10007KT 25/20 A2996 RMK A01 T02460199  RH  075%=      5-min Rain = 0
KES1 060700Z 09008KT 25/20 A2996 RMK A01 T02460199  RH  075%=      5-min Rain = 0
KES1 060701Z 10008KT 25/20 A2996 RMK A01 T02460199  RH  075%=      5-min Rain = 0
KES1 060702Z 09006KT 25/20 A2996 RMK A01 T02460199  RH  075%=      5-min Rain = 0
KES1 060703Z 09007KT 25/20 A2996 RMK A01 T02460199  RH  075%=      5-min Rain = 0
KES1 060704Z 09006KT 25/20 A2996 RMK A01 T02460199  RH  075%=      5-min Rain = 0
KES1 060705Z 08006KT 25/20 A2996 RMK A01 T02460199  RH  075%=      5-min Rain = 0
KES1 060706Z 08006KT 25/20 A2996 RMK A01 T02450199  RH  075%=      5-min Rain = 0
KES1 060707Z 08006KT 24/20 A2996 RMK A01 T02440198  RH  075%=      5-min Rain = 0
KES1 060708Z 08006KT 24/20 A2996 RMK A01 T02440198  RH  076%=      5-min Rain = 0
KES1 060709Z 08005KT 24/20 A2996 RMK A01 T02430198  RH  076%=      5-min Rain = 0
KES1 060710Z 08006KT 24/20 A2996 RMK A01 T02430198  RH  076%=      5-min Rain = 0
KES1 060711Z 09005KT 24/20 A2996 RMK A01 T02420199  RH  077%=      5-min Rain = 0
KES1 060712Z 09006KT 24/20 A2996 RMK A01 T02420199  RH  077%=      5-min Rain = 0
KES1 060713Z 08006KT 24/20 A2996 RMK A01 T02420199  RH  077%=      5-min Rain = 0
KES1 060714Z 09006KT 24/20 A2996 RMK A01 T02410199  RH  077%=      5-min Rain = 0
KES1 060715Z 09005KT 24/20 A2996 RMK A01 T02420199  RH  077%=      5-min Rain = 0
KES1 060716Z 09005KT 24/20 A2996 RMK A01 T02410199  RH  077%=      5-min Rain = 0
KES1 060717Z 09004KT 24/20 A2996 RMK A01 T02410200  RH  077%=      5-min Rain = 0
KES1 060718Z 10005KT 24/20 A2996 RMK A01 T02410200  RH  077%=      5-min Rain = 0
KES1 060719Z 10005KT 24/20 A2996 RMK A01 T02410200  RH  078%=      5-min Rain = 0
KES1 060720Z 09005KT 24/20 A2996 RMK A01 T02410200  RH  078%=      5-min Rain = 0
KES1 060721Z 09005KT 24/20 A2996 RMK A01 T02410200  RH  078%=      5-min Rain = 0
KES1 060722Z 09006KT 24/20 A2996 RMK A01 T02410199  RH  078%=      5-min Rain = 0
KES1 060723Z 09005KT 24/20 A2996 RMK A01 T02410200  RH  078%=      5-min Rain = 0
KES1 060724Z 09005KT 24/20 A2996 RMK A01 T02410200  RH  078%=      5-min Rain = 0
KES1 060725Z 08005KT 24/20 A2996 RMK A01 T02410200  RH  078%=      5-min Rain = 0
KES1 060726Z 09005KT 24/20 A2996 RMK A01 T02400200  RH  078%=      5-min Rain = 0
KES1 060727Z 08005KT 24/20 A2996 RMK A01 T02400200  RH  078%=      5-min Rain = 0
KES1 060728Z 08004KT 24/20 A2996 RMK A01 T02390200  RH  078%=      5-min Rain = 0
KES1 060729Z 09006KT 24/20 A2996 RMK A01 T02390200  RH  079%=      5-min Rain = 0
KES1 060730Z 09005KT 24/20 A2996 RMK A01 T02390200  RH  079%=      5-min Rain = 0
KES1 060731Z 08005KT 24/20 A2996 RMK A01 T02390200  RH  079%=      5-min Rain = 0
KES1 060732Z 09005KT 24/20 A2996 RMK A01 T02380200  RH  079%=      5-min Rain = 0
KES1 060733Z 09005KT 24/20 A2996 RMK A01 T02380200  RH  079%=      5-min Rain = 0
KES1 060734Z 09005KT 24/20 A2996 RMK A01 T02380200  RH  079%=      5-min Rain = 0
KES1 060735Z 10005KT 24/20 A2996 RMK A01 T02370200  RH  079%=      5-min Rain = 0
KES1 060736Z 09005KT 24/20 A2996 RMK A01 T02370200  RH  079%=      5-min Rain = 0
KES1 060737Z 10005KT 24/20 A2996 RMK A01 T02380200  RH  079%=      5-min Rain = 0
KES1 060738Z 09005KT 24/20 A2996 RMK A01 T02370200  RH  080%=      5-min Rain = 0
KES1 060739Z 09006KT 24/20 A2996 RMK A01 T02380200  RH  079%=      5-min Rain = 0
KES1 060740Z 11005KT 24/20 A2996 RMK A01 T02380201  RH  079%=      5-min Rain = 0
KES1 060741Z 11005KT 24/20 A2996 RMK A01 T02380200  RH  079%=      5-min Rain = 0
KES1 060742Z 10006KT 24/20 A2995 RMK A01 T02370200  RH  080%=      5-min Rain = 0
KES1 060743Z 10006KT 24/20 A2995 RMK A01 T02380200  RH  080%=      5-min Rain = 0
KES1 060744Z 11005KT 24/20 A2996 RMK A01 T02380201  RH  080%=      5-min Rain = 0
KES1 060745Z 10004KT 24/20 A2996 RMK A01 T02380201  RH  080%=      5-min Rain = 0
KES1 060746Z 10006KT 24/20 A2996 RMK A01 T02380201  RH  080%=      5-min Rain = 0
KES1 060747Z 10005KT 24/20 A2996 RMK A01 T02380201  RH  080%=      5-min Rain = 0
KES1 060748Z 10004KT 24/20 A2996 RMK A01 T02380201  RH  080%=      5-min Rain = 0
KES1 060749Z 10004KT 24/20 A2996 RMK A01 T02380201  RH  080%=      5-min Rain = 0
KES1 060750Z 09005KT 24/20 A2996 RMK A01 T02380201  RH  080%=      5-min Rain = 0
KES1 060751Z 09006KT 24/20 A2996 RMK A01 T02380202  RH  080%=      5-min Rain = 0
KES1 060752Z 09006KT 24/20 A2996 RMK A01 T02380202  RH  080%=      5-min Rain = 0
KES1 060753Z 09005KT 24/20 A2996 RMK A01 T02380202  RH  080%=      5-min Rain = 0
KES1 060754Z 09005KT 24/20 A2996 RMK A01 T02380201  RH  080%=      5-min Rain = 0
KES1 060755Z 09006KT 24/20 A2996 RMK A01 T02370201  RH  080%=      5-min Rain = 0
KES1 060756Z 09007KT 24/20 A2996 RMK A01 T02370201  RH  080%=      5-min Rain = 0
KES1 060757Z 09007KT 24/20 A2996 RMK A01 T02370202  RH  080%=      5-min Rain = 0
KES1 060758Z 09006KT 24/20 A2996 RMK A01 T02380202  RH  080%=      5-min Rain = 0
KES1 060759Z 10006KT 24/20 A2996 RMK A01 T02380202  RH  080%=      5-min Rain = 0
KES1 060800Z 09005KT 24/20 A2996 RMK A01 T02380202  RH  080%=      5-min Rain = 0
KES1 060801Z 09006KT 24/20 A2996 RMK A01 T02380202  RH  080%=      5-min Rain = 0
KES1 060802Z 09005KT 24/20 A2996 RMK A01 T02380202  RH  080%=      5-min Rain = 0
KES1 060803Z 10005KT 24/20 A2996 RMK A01 T02380202  RH  080%=      5-min Rain = 0
KES1 060804Z 09006KT 24/20 A2996 RMK A01 T02370202  RH  081%=      5-min Rain = 0
KES1 060805Z 09005KT 24/20 A2996 RMK A01 T02370202  RH  081%=      5-min Rain = 0
KES1 060806Z 09006KT 24/20 A2996 RMK A01 T02370202  RH  081%=      5-min Rain = 0
KES1 060807Z 10007KT 24/20 A2996 RMK A01 T02370202  RH  081%=      5-min Rain = 0
KES1 060808Z 10006KT 24/20 A2996 RMK A01 T02370202  RH  081%=      5-min Rain = 0
KES1 060809Z 10007KT 24/20 A2996 RMK A01 T02370202  RH  081%=      5-min Rain = 0
KES1 060810Z 10005KT 24/20 A2996 RMK A01 T02380203  RH  081%=      5-min Rain = 0
KES1 060811Z 10005KT 24/20 A2996 RMK A01 T02380203  RH  081%=      5-min Rain = 0
KES1 060812Z 10006KT 24/20 A2996 RMK A01 T02380203  RH  081%=      5-min Rain = 0
KES1 060813Z 09004KT 24/20 A2996 RMK A01 T02380203  RH  081%=      5-min Rain = 0
KES1 060814Z 09004KT 24/20 A2996 RMK A01 T02380203  RH  081%=      5-min Rain = 0
KES1 060815Z 09006KT 24/20 A2996 RMK A01 T02380203  RH  081%=      5-min Rain = 0
KES1 060816Z 09006KT 24/20 A2996 RMK A01 T02380203  RH  081%=      5-min Rain = 0
KES1 060817Z 09006KT 24/20 A2996 RMK A01 T02380203  RH  081%=      5-min Rain = 0
KES1 060818Z 08005KT 24/20 A2996 RMK A01 T02380203  RH  081%=      5-min Rain = 0
KES1 060819Z 09005KT 24/20 A2996 RMK A01 T02380203  RH  081%=      5-min Rain = 0
KES1 060820Z 09004KT 24/20 A2996 RMK A01 T02370203  RH  081%=      5-min Rain = 0
KES1 060821Z 08003KT 24/20 A2996 RMK A01 T02370203  RH  081%=      5-min Rain = 0
KES1 060822Z 07003KT 24/20 A2996 RMK A01 T02370203  RH  081%=      5-min Rain = 0
KES1 060823Z 06003KT 24/20 A2996 RMK A01 T02360202  RH  081%=      5-min Rain = 0
KES1 060824Z 06003KT 24/20 A2996 RMK A01 T02350201  RH  081%=      5-min Rain = 0
KES1 060825Z 06003KT 23/20 A2996 RMK A01 T02340201  RH  082%=      5-min Rain = 0
KES1 060826Z 06004KT 23/20 A2996 RMK A01 T02330201  RH  082%=      5-min Rain = 0
KES1 060827Z 06004KT 23/20 A2996 RMK A01 T02330201  RH  082%=      5-min Rain = 0
KES1 060828Z 06003KT 23/20 A2996 RMK A01 T02320200  RH  083%=      5-min Rain = 0
KES1 060829Z 06003KT 23/20 A2996 RMK A01 T02310200  RH  083%=      5-min Rain = 0
KES1 060830Z 06004KT 23/20 A2996 RMK A01 T02310200  RH  083%=      5-min Rain = 0
KES1 060831Z 06003KT 23/20 A2996 RMK A01 T02300200  RH  083%=      5-min Rain = 0
KES1 060832Z 07003KT 23/20 A2996 RMK A01 T02300200  RH  083%=      5-min Rain = 0
KES1 060833Z 06003KT 23/20 A2996 RMK A01 T02290200  RH  083%=      5-min Rain = 0
KES1 060834Z 08002KT 23/20 A2996 RMK A01 T02290200  RH  084%=      5-min Rain = 0
KES1 060835Z 08003KT 23/20 A2995 RMK A01 T02280200  RH  084%=      5-min Rain = 0
KES1 060836Z 09003KT 23/20 A2995 RMK A01 T02280200  RH  084%=      5-min Rain = 0
KES1 060837Z 09004KT 23/20 A2995 RMK A01 T02270199  RH  084%=      5-min Rain = 0
KES1 060838Z 09003KT 23/20 A2995 RMK A01 T02280200  RH  084%=      5-min Rain = 0
KES1 060839Z 10004KT 23/20 A2995 RMK A01 T02270200  RH  085%=      5-min Rain = 0
KES1 060840Z 09004KT 23/20 A2995 RMK A01 T02260199  RH  085%=      5-min Rain = 0
KES1 060841Z 09004KT 23/20 A2995 RMK A01 T02260200  RH  085%=      5-min Rain = 0
KES1 060842Z 09004KT 23/20 A2995 RMK A01 T02270200  RH  085%=      5-min Rain = 0
KES1 060843Z 09004KT 23/20 A2995 RMK A01 T02260200  RH  085%=      5-min Rain = 0
KES1 060844Z 10003KT 23/20 A2995 RMK A01 T02260200  RH  085%=      5-min Rain = 0
KES1 060845Z 10004KT 23/20 A2995 RMK A01 T02260200  RH  085%=      5-min Rain = 0
KES1 060846Z 09004KT 23/20 A2995 RMK A01 T02260200  RH  085%=      5-min Rain = 0
KES1 060847Z 09004KT 23/20 A2995 RMK A01 T02260200  RH  085%=      5-min Rain = 0
KES1 060848Z 09003KT 23/20 A2995 RMK A01 T02270201  RH  085%=      5-min Rain = 0
KES1 060849Z 09004KT 23/20 A2995 RMK A01 T02270201  RH  085%=      5-min Rain = 0
KES1 060850Z 09003KT 23/20 A2995 RMK A01 T02260200  RH  085%=      5-min Rain = 0
KES1 060851Z 09003KT 23/20 A2995 RMK A01 T02270201  RH  085%=      5-min Rain = 0
KES1 060852Z 09003KT 23/20 A2995 RMK A01 T02260200  RH  085%=      5-min Rain = 0
KES1 060853Z 09003KT 23/20 A2995 RMK A01 T02260200  RH  085%=      5-min Rain = 0
KES1 060854Z 10005KT 23/20 A2995 RMK A01 T02260201  RH  086%=      5-min Rain = 0
KES1 060855Z 11004KT 23/20 A2995 RMK A01 T02260202  RH  086%=      5-min Rain = 0
KES1 060856Z 09005KT 23/20 A2995 RMK A01 T02270202  RH  085%=      5-min Rain = 0
KES1 060857Z 09004KT 23/20 A2995 RMK A01 T02270201  RH  085%=      5-min Rain = 0
KES1 060858Z 09003KT 23/20 A2995 RMK A01 T02270201  RH  085%=      5-min Rain = 0
KES1 060859Z 08003KT 23/20 A2995 RMK A01 T02280201  RH  085%=      5-min Rain = 0
KES1 060900Z 09002KT 23/20 A2995 RMK A01 T02270201  RH  085%=      5-min Rain = 0
KES1 060901Z 10002KT 23/20 A2995 RMK A01 T02270200  RH  085%=      5-min Rain = 0
KES1 060902Z 10002KT 23/20 A2995 RMK A01 T02260201  RH  085%=      5-min Rain = 0
KES1 060903Z 09002KT 23/20 A2995 RMK A01 T02260201  RH  086%=      5-min Rain = 0
KES1 060904Z 10002KT 23/20 A2995 RMK A01 T02260201  RH  086%=      5-min Rain = 0
KES1 060905Z 09003KT 23/20 A2995 RMK A01 T02260201  RH  086%=      5-min Rain = 0
KES1 060906Z 10003KT 23/20 A2995 RMK A01 T02260201  RH  086%=      5-min Rain = 0
KES1 060907Z 10004KT 23/20 A2995 RMK A01 T02260202  RH  087%=      5-min Rain = 0
KES1 060908Z 10003KT 23/20 A2996 RMK A01 T02260202  RH  086%=      5-min Rain = 0
KES1 060909Z 11005KT 23/20 A2996 RMK A01 T02260202  RH  086%=      5-min Rain = 0
KES1 060910Z 11004KT 23/20 A2996 RMK A01 T02270203  RH  086%=      5-min Rain = 0
KES1 060911Z 09003KT 23/20 A2996 RMK A01 T02280204  RH  086%=      5-min Rain = 0
KES1 060912Z 07003KT 23/20 A2996 RMK A01 T02280202  RH  085%=      5-min Rain = 0
KES1 060913Z 06003KT 23/20 A2996 RMK A01 T02270200  RH  085%=      5-min Rain = 0
KES1 060914Z 06003KT 23/20 A2996 RMK A01 T02260199  RH  085%=      5-min Rain = 0
KES1 060915Z 05003KT 23/20 A2996 RMK A01 T02250199  RH  085%=      5-min Rain = 0
KES1 060916Z 05003KT 22/20 A2996 RMK A01 T02240198  RH  085%=      5-min Rain = 0
KES1 060917Z 06003KT 22/20 A2996 RMK A01 T02230198  RH  086%=      5-min Rain = 0
KES1 060918Z 05003KT 22/20 A2995 RMK A01 T02220198  RH  086%=      5-min Rain = 0
KES1 060919Z 06003KT 22/20 A2995 RMK A01 T02220198  RH  086%=      5-min Rain = 0
KES1 060920Z 05004KT 22/20 A2995 RMK A01 T02210198  RH  087%=      5-min Rain = 0
KES1 060921Z 06003KT 22/20 A2995 RMK A01 T02210198  RH  087%=      5-min Rain = 0
KES1 060922Z 06003KT 22/20 A2996 RMK A01 T02210198  RH  087%=      5-min Rain = 0
KES1 060923Z 05003KT 22/20 A2996 RMK A01 T02200198  RH  087%=      5-min Rain = 0
KES1 060924Z 05003KT 22/20 A2996 RMK A01 T02200198  RH  088%=      5-min Rain = 0
KES1 060925Z 05003KT 22/20 A2995 RMK A01 T02200198  RH  088%=      5-min Rain = 0
KES1 060926Z 06003KT 22/20 A2996 RMK A01 T02190198  RH  088%=      5-min Rain = 0
KES1 060927Z 06003KT 22/20 A2996 RMK A01 T02200199  RH  088%=      5-min Rain = 0
KES1 060928Z 06003KT 22/20 A2996 RMK A01 T02190199  RH  088%=      5-min Rain = 0
KES1 060929Z 05004KT 22/20 A2996 RMK A01 T02190199  RH  088%=      5-min Rain = 0
KES1 060930Z 05004KT 22/20 A2996 RMK A01 T02190198  RH  088%=      5-min Rain = 0
KES1 060931Z 05005KT 22/20 A2996 RMK A01 T02190199  RH  088%=      5-min Rain = 0
KES1 060932Z 05004KT 22/20 A2996 RMK A01 T02190199  RH  089%=      5-min Rain = 0
KES1 060933Z 05004KT 22/20 A2996 RMK A01 T02190199  RH  089%=      5-min Rain = 0
KES1 060934Z 05004KT 22/20 A2996 RMK A01 T02190199  RH  089%=      5-min Rain = 0
KES1 060935Z 05005KT 22/20 A2996 RMK A01 T02190199  RH  089%=      5-min Rain = 0
KES1 060936Z 05005KT 22/20 A2996 RMK A01 T02190199  RH  089%=      5-min Rain = 0
KES1 060937Z 05004KT 22/20 A2996 RMK A01 T02190199  RH  089%=      5-min Rain = 0
KES1 060938Z 05004KT 22/20 A2996 RMK A01 T02190200  RH  089%=      5-min Rain = 0
KES1 060939Z 06004KT 22/20 A2996 RMK A01 T02190199  RH  089%=      5-min Rain = 0
KES1 060940Z 06004KT 22/20 A2996 RMK A01 T02190199  RH  089%=      5-min Rain = 0
KES1 060941Z 06003KT 22/20 A2996 RMK A01 T02190200  RH  089%=      5-min Rain = 0
KES1 060942Z 06003KT 22/20 A2996 RMK A01 T02190200  RH  089%=      5-min Rain = 0
KES1 060943Z 06003KT 22/20 A2996 RMK A01 T02180200  RH  089%=      5-min Rain = 0
KES1 060944Z 07003KT 22/20 A2996 RMK A01 T02180200  RH  089%=      5-min Rain = 0
KES1 060945Z 07003KT 22/20 A2996 RMK A01 T02180199  RH  089%=      5-min Rain = 0
KES1 060946Z 08003KT 22/20 A2996 RMK A01 T02180199  RH  089%=      5-min Rain = 0
KES1 060947Z 08003KT 22/20 A2996 RMK A01 T02180199  RH  089%=      5-min Rain = 0
KES1 060948Z 08003KT 22/20 A2996 RMK A01 T02180200  RH  089%=      5-min Rain = 0
KES1 060949Z 08003KT 22/20 A2996 RMK A01 T02170199  RH  089%=      5-min Rain = 0
KES1 060950Z 08003KT 22/20 A2996 RMK A01 T02170200  RH  090%=      5-min Rain = 0
KES1 060951Z 08002KT 22/20 A2996 RMK A01 T02170200  RH  090%=      5-min Rain = 0
KES1 060952Z 09002KT 22/20 A2996 RMK A01 T02180200  RH  090%=      5-min Rain = 0
KES1 060953Z 09002KT 22/20 A2996 RMK A01 T02170200  RH  090%=      5-min Rain = 0
KES1 060954Z 09003KT 22/20 A2996 RMK A01 T02170200  RH  090%=      5-min Rain = 0
KES1 060955Z 09003KT 22/20 A2995 RMK A01 T02170200  RH  090%=      5-min Rain = 0
KES1 060956Z 10003KT 22/20 A2995 RMK A01 T02170200  RH  090%=      5-min Rain = 0
KES1 060957Z 09002KT 22/20 A2995 RMK A01 T02170200  RH  090%=      5-min Rain = 0
KES1 060958Z 09003KT 22/20 A2995 RMK A01 T02170200  RH  090%=      5-min Rain = 0
KES1 060959Z 09003KT 22/20 A2995 RMK A01 T02160199  RH  090%=      5-min Rain = 0
KES1 061000Z 10003KT 22/20 A2995 RMK A01 T02160199  RH  090%=      5-min Rain = 0
KES1 061001Z 10004KT 22/20 A2995 RMK A01 T02160199  RH  090%=      5-min Rain = 0
KES1 061002Z 10004KT 22/20 A2995 RMK A01 T02170199  RH  090%=      5-min Rain = 0
KES1 061003Z 10004KT 22/20 A2995 RMK A01 T02160199  RH  090%=      5-min Rain = 0
KES1 061004Z 10003KT 22/20 A2995 RMK A01 T02160199  RH  090%=      5-min Rain = 0
KES1 061005Z 09004KT 22/20 A2995 RMK A01 T02170199  RH  090%=      5-min Rain = 0
KES1 061006Z 09004KT 22/20 A2995 RMK A01 T02170200  RH  090%=      5-min Rain = 0
KES1 061007Z 09004KT 22/20 A2995 RMK A01 T02170200  RH  090%=      5-min Rain = 0
KES1 061008Z 09004KT 22/20 A2995 RMK A01 T02170200  RH  090%=      5-min Rain = 0
KES1 061009Z 09004KT 22/20 A2994 RMK A01 T02170200  RH  090%=      5-min Rain = 0
KES1 061010Z 09004KT 22/20 A2994 RMK A01 T02170200  RH  090%=      5-min Rain = 0
KES1 061011Z 09004KT 22/20 A2994 RMK A01 T02170200  RH  090%=      5-min Rain = 0
KES1 061012Z 09004KT 22/20 A2994 RMK A01 T02170200  RH  090%=      5-min Rain = 0
KES1 061013Z 09003KT 22/20 A2994 RMK A01 T02170200  RH  090%=      5-min Rain = 0
KES1 061014Z 08003KT 22/20 A2994 RMK A01 T02170200  RH  090%=      5-min Rain = 0
KES1 061015Z 08003KT 22/20 A2994 RMK A01 T02170200  RH  090%=      5-min Rain = 0
KES1 061016Z 07003KT 22/20 A2994 RMK A01 T02170200  RH  090%=      5-min Rain = 0
KES1 061017Z 07002KT 22/20 A2995 RMK A01 T02180201  RH  090%=      5-min Rain = 0
KES1 061018Z 05002KT 22/20 A2995 RMK A01 T02180201  RH  090%=      5-min Rain = 0
KES1 061019Z 05002KT 22/20 A2995 RMK A01 T02180201  RH  090%=      5-min Rain = 0
KES1 061020Z 04003KT 22/20 A2995 RMK A01 T02180201  RH  090%=      5-min Rain = 0
KES1 061021Z 04003KT 22/20 A2995 RMK A01 T02180201  RH  090%=      5-min Rain = 0
KES1 061022Z 03002KT 22/20 A2995 RMK A01 T02180200  RH  090%=      5-min Rain = 0
KES1 061023Z 04002KT 22/20 A2995 RMK A01 T02180201  RH  090%=      5-min Rain = 0
KES1 061024Z 05002KT 22/20 A2995 RMK A01 T02180201  RH  090%=      5-min Rain = 0
KES1 061025Z 05002KT 22/20 A2995 RMK A01 T02180201  RH  090%=      5-min Rain = 0
KES1 061026Z 08002KT 22/20 A2995 RMK A01 T02180202  RH  090%=      5-min Rain = 0
KES1 061027Z 08003KT 22/20 A2994 RMK A01 T02190202  RH  090%=      5-min Rain = 0
KES1 061028Z 09003KT 22/20 A2994 RMK A01 T02190201  RH  090%=      5-min Rain = 0
KES1 061029Z 09004KT 22/20 A2994 RMK A01 T02180201  RH  090%=      5-min Rain = 0
KES1 061030Z 10004KT 22/20 A2994 RMK A01 T02180200  RH  090%=      5-min Rain = 0
KES1 061031Z 11004KT 22/20 A2994 RMK A01 T02170200  RH  090%=      5-min Rain = 0
KES1 061032Z 11004KT 22/20 A2994 RMK A01 T02170201  RH  090%=      5-min Rain = 0
KES1 061033Z 12004KT 22/20 A2994 RMK A01 T02170200  RH  090%=      5-min Rain = 0
KES1 061034Z 12005KT 22/20 A2994 RMK A01 T02170201  RH  090%=      5-min Rain = 0
KES1 061035Z 12004KT 22/20 A2994 RMK A01 T02180202  RH  091%=      5-min Rain = 0
KES1 061036Z 13005KT 22/20 A2993 RMK A01 T02190203  RH  091%=      5-min Rain = 0
KES1 061037Z 12006KT 22/20 A2993 RMK A01 T02200204  RH  091%=      5-min Rain = 0
KES1 061038Z 12004KT 22/21 A2993 RMK A01 T02210206  RH  091%=      5-min Rain = 0
KES1 061039Z 12006KT 22/21 A2993 RMK A01 T02220206  RH  091%=      5-min Rain = 0
KES1 061040Z 12005KT 22/21 A2993 RMK A01 T02220206  RH  090%=      5-min Rain = 0
KES1 061041Z 11005KT 22/21 A2993 RMK A01 T02230207  RH  090%=      5-min Rain = 0
KES1 061042Z 11005KT 22/21 A2993 RMK A01 T02230206  RH  090%=      5-min Rain = 0
KES1 061043Z 11005KT 22/21 A2993 RMK A01 T02240206  RH  090%=      5-min Rain = 0
KES1 061044Z 12004KT 22/21 A2993 RMK A01 T02240207  RH  090%=      5-min Rain = 0
KES1 061045Z 12004KT 22/21 A2993 RMK A01 T02240207  RH  090%=      5-min Rain = 0
KES1 061046Z 13005KT 22/21 A2993 RMK A01 T02240207  RH  090%=      5-min Rain = 0
KES1 061047Z 12005KT 23/21 A2993 RMK A01 T02250207  RH  090%=      5-min Rain = 0
KES1 061048Z 12003KT 23/21 A2994 RMK A01 T02250207  RH  090%=      5-min Rain = 0
KES1 061049Z 10003KT 23/21 A2994 RMK A01 T02250207  RH  090%=      5-min Rain = 0
KES1 061050Z 11002KT 23/21 A2994 RMK A01 T02250207  RH  090%=      5-min Rain = 0
KES1 061051Z 11002KT 23/21 A2994 RMK A01 T02250207  RH  090%=      5-min Rain = 0
KES1 061052Z 13002KT 23/21 A2994 RMK A01 T02250207  RH  090%=      5-min Rain = 0
KES1 061053Z 13003KT 23/21 A2994 RMK A01 T02250207  RH  090%=      5-min Rain = 0
KES1 061054Z 13005KT 23/21 A2994 RMK A01 T02250207  RH  090%=      5-min Rain = 0
KES1 061055Z 13004KT 23/21 A2994 RMK A01 T02250207  RH  090%=      5-min Rain = 0
KES1 061056Z 13004KT 23/21 A2994 RMK A01 T02250207  RH  090%=      5-min Rain = 0
KES1 061057Z 12004KT 23/21 A2993 RMK A01 T02250207  RH  090%=      5-min Rain = 0
KES1 061058Z 13004KT 23/21 A2993 RMK A01 T02250207  RH  090%=      5-min Rain = 0
KES1 061059Z 14005KT 23/21 A2993 RMK A01 T02250207  RH  090%=      5-min Rain = 0
KES1 061100Z 13006KT 23/21 A2993 RMK A01 T02250207  RH  090%=      5-min Rain = 0
KES1 061101Z 13005KT 22/21 A2993 RMK A01 T02240207  RH  090%=      5-min Rain = 0
KES1 061102Z 13004KT 22/21 A2993 RMK A01 T02240207  RH  090%=      5-min Rain = 0
KES1 061103Z 14006KT 22/21 A2993 RMK A01 T02240207  RH  090%=      5-min Rain = 0
KES1 061104Z 13005KT 22/21 A2993 RMK A01 T02240207  RH  090%=      5-min Rain = 0
KES1 061105Z 13004KT 22/21 A2993 RMK A01 T02240207  RH  090%=      5-min Rain = 0
KES1 061106Z 13004KT 22/21 A2993 RMK A01 T02240207  RH  090%=      5-min Rain = 0
KES1 061107Z 13004KT 22/21 A2993 RMK A01 T02240207  RH  090%=      5-min Rain = 0
KES1 061108Z 13004KT 22/21 A2993 RMK A01 T02240207  RH  090%=      5-min Rain = 0
KES1 061109Z 13004KT 22/21 A2993 RMK A01 T02240207  RH  090%=      5-min Rain = 0
KES1 061110Z 13004KT 22/21 A2993 RMK A01 T02240207  RH  090%=      5-min Rain = 0
KES1 061111Z 11004KT 22/21 A2994 RMK A01 T02240207  RH  090%=      5-min Rain = 0
KES1 061112Z 12004KT 22/21 A2994 RMK A01 T02240207  RH  090%=      5-min Rain = 0
KES1 061113Z 12004KT 22/21 A2994 RMK A01 T02230207  RH  090%=      5-min Rain = 0
KES1 061114Z 12003KT 22/21 A2994 RMK A01 T02230207  RH  090%=      5-min Rain = 0
KES1 061115Z 12004KT 22/21 A2994 RMK A01 T02230207  RH  091%=      5-min Rain = 0
KES1 061116Z 12005KT 22/21 A2994 RMK A01 T02230207  RH  091%=      5-min Rain = 0
KES1 061117Z 12004KT 22/21 A2994 RMK A01 T02230207  RH  091%=      5-min Rain = 0
KES1 061118Z 12003KT 22/21 A2994 RMK A01 T02230207  RH  091%=      5-min Rain = 0
KES1 061119Z 11002KT 22/21 A2994 RMK A01 T02230207  RH  091%=      5-min Rain = 0
KES1 061120Z 12003KT 22/21 A2994 RMK A01 T02230207  RH  091%=      5-min Rain = 0
KES1 061121Z 12003KT 22/21 A2994 RMK A01 T02230207  RH  091%=      5-min Rain = 0
KES1 061122Z 13002KT 22/21 A2994 RMK A01 T02230207  RH  091%=      5-min Rain = 0
KES1 061123Z 14002KT 22/21 A2994 RMK A01 T02220207  RH  091%=      5-min Rain = 0
KES1 061124Z 14003KT 22/21 A2994 RMK A01 T02220207  RH  091%=      5-min Rain = 0
KES1 061125Z 14003KT 22/21 A2994 RMK A01 T02220207  RH  091%=      5-min Rain = 0
KES1 061126Z 14002KT 22/21 A2994 RMK A01 T02220206  RH  091%=      5-min Rain = 0
KES1 061127Z 14002KT 22/21 A2994 RMK A01 T02220207  RH  091%=      5-min Rain = 0
KES1 061128Z 13003KT 22/21 A2994 RMK A01 T02210207  RH  091%=      5-min Rain = 0
KES1 061129Z 14003KT 22/21 A2994 RMK A01 T02220207  RH  091%=      5-min Rain = 0
KES1 061130Z 14003KT 22/21 A2994 RMK A01 T02220207  RH  091%=      5-min Rain = 0
KES1 061131Z 13003KT 22/21 A2994 RMK A01 T02210206  RH  091%=      5-min Rain = 0
KES1 061132Z 13003KT 22/21 A2994 RMK A01 T02210207  RH  092%=      5-min Rain = 0
KES1 061133Z 12002KT 22/21 A2994 RMK A01 T02210207  RH  092%=      5-min Rain = 0
KES1 061134Z 14003KT 22/21 A2994 RMK A01 T02210207  RH  092%=      5-min Rain = 0
KES1 061135Z 12002KT 22/21 A2994 RMK A01 T02210207  RH  092%=      5-min Rain = 0
KES1 061136Z 13002KT 22/21 A2994 RMK A01 T02210206  RH  091%=      5-min Rain = 0
KES1 061137Z 10001KT 22/21 A2994 RMK A01 T02210207  RH  092%=      5-min Rain = 0
KES1 061138Z 08001KT 22/21 A2994 RMK A01 T02210206  RH  091%=      5-min Rain = 0
KES1 061139Z 08001KT 22/21 A2994 RMK A01 T02210207  RH  091%=      5-min Rain = 0
KES1 061140Z 08001KT 22/21 A2994 RMK A01 T02210207  RH  092%=      5-min Rain = 0
KES1 061141Z 06001KT 22/21 A2994 RMK A01 T02210207  RH  092%=      5-min Rain = 0
KES1 061142Z 07002KT 22/21 A2994 RMK A01 T02210206  RH  092%=      5-min Rain = 0
KES1 061143Z 07002KT 22/21 A2995 RMK A01 T02210206  RH  091%=      5-min Rain = 0
KES1 061144Z 08002KT 22/21 A2995 RMK A01 T02200206  RH  092%=      5-min Rain = 0
KES1 061145Z 09002KT 22/21 A2995 RMK A01 T02200206  RH  092%=      5-min Rain = 0
KES1 061146Z 08003KT 22/21 A2995 RMK A01 T02200207  RH  092%=      5-min Rain = 0
KES1 061147Z 09002KT 22/21 A2995 RMK A01 T02200206  RH  092%=      5-min Rain = 0
KES1 061148Z 08002KT 22/21 A2995 RMK A01 T02200207  RH  092%=      5-min Rain = 0
KES1 061149Z 08002KT 22/21 A2995 RMK A01 T02200207  RH  092%=      5-min Rain = 0
KES1 061150Z 09002KT 22/21 A2995 RMK A01 T02200207  RH  092%=      5-min Rain = 0
KES1 061151Z 09002KT 22/21 A2995 RMK A01 T02200207  RH  092%=      5-min Rain = 0
KES1 061152Z 08002KT 22/21 A2995 RMK A01 T02200207  RH  092%=      5-min Rain = 0
KES1 061153Z 09002KT 22/21 A2995 RMK A01 T02200207  RH  092%=      5-min Rain = 0
KES1 061154Z 08002KT 22/21 A2995 RMK A01 T02190206  RH  092%=      5-min Rain = 0
KES1 061155Z 10003KT 22/21 A2995 RMK A01 T02190206  RH  092%=      5-min Rain = 0
KES1 061156Z 10002KT 22/21 A2995 RMK A01 T02190207  RH  092%=      5-min Rain = 0
KES1 061157Z 10002KT 22/21 A2995 RMK A01 T02190206  RH  092%=      5-min Rain = 0
KES1 061158Z 10003KT 22/21 A2995 RMK A01 T02190206  RH  092%=      5-min Rain = 0
KES1 061159Z 10003KT 22/21 A2995 RMK A01 T02180205  RH  092%=      5-min Rain = 0
KES1 061200Z 10003KT 22/21 A2995 RMK A01 T02180206  RH  092%=      5-min Rain = 0
KES1 061201Z 11002KT 22/21 A2995 RMK A01 T02180205  RH  093%=      5-min Rain = 0
KES1 061202Z 10002KT 22/21 A2995 RMK A01 T02180205  RH  093%=      5-min Rain = 0
KES1 061203Z 11002KT 22/21 A2995 RMK A01 T02180206  RH  093%=      5-min Rain = 0
KES1 061204Z 11001KT 22/21 A2995 RMK A01 T02170205  RH  093%=      5-min Rain = 0
KES1 061205Z 11001KT 22/21 A2995 RMK A01 T02170205  RH  093%=      5-min Rain = 0
KES1 061206Z 11002KT 22/21 A2995 RMK A01 T02170205  RH  093%=      5-min Rain = 0
KES1 061207Z 10002KT 22/21 A2995 RMK A01 T02170206  RH  093%=      5-min Rain = 0
KES1 061208Z 10002KT 22/21 A2995 RMK A01 T02170206  RH  093%=      5-min Rain = 0
KES1 061209Z 10002KT 22/21 A2995 RMK A01 T02170206  RH  093%=      5-min Rain = 0
KES1 061210Z 11002KT 22/21 A2995 RMK A01 T02170206  RH  093%=      5-min Rain = 0
KES1 061211Z 11002KT 22/21 A2995 RMK A01 T02170206  RH  093%=      5-min Rain = 0
KES1 061212Z 12002KT 22/21 A2995 RMK A01 T02180206  RH  093%=      5-min Rain = 0
KES1 061213Z 12002KT 22/21 A2995 RMK A01 T02180206  RH  093%=      5-min Rain = 0
KES1 061214Z 13002KT 22/21 A2995 RMK A01 T02180206  RH  093%=      5-min Rain = 0
KES1 061215Z 13002KT 22/21 A2995 RMK A01 T02170205  RH  093%=      5-min Rain = 0
KES1 061216Z 13002KT 22/21 A2995 RMK A01 T02170206  RH  093%=      5-min Rain = 0
KES1 061217Z 14002KT 22/21 A2995 RMK A01 T02170206  RH  093%=      5-min Rain = 0
KES1 061218Z 14002KT 22/21 A2995 RMK A01 T02180206  RH  093%=      5-min Rain = 0
KES1 061219Z 13003KT 22/21 A2995 RMK A01 T02170206  RH  093%=      5-min Rain = 0
KES1 061220Z 13003KT 22/21 A2995 RMK A01 T02170206  RH  093%=      5-min Rain = 0
KES1 061221Z 13002KT 22/21 A2995 RMK A01 T02180206  RH  093%=      5-min Rain = 0
KES1 061222Z 13002KT 22/21 A2995 RMK A01 T02180207  RH  093%=      5-min Rain = 0
KES1 061223Z 13002KT 22/21 A2995 RMK A01 T02180207  RH  093%=      5-min Rain = 0
KES1 061224Z 13001KT 22/21 A2995 RMK A01 T02180207  RH  093%=      5-min Rain = 0
KES1 061225Z 11001KT 22/21 A2995 RMK A01 T02180206  RH  093%=      5-min Rain = 0
KES1 061226Z 10000KT 22/21 A2995 RMK A01 T02190207  RH  093%=      5-min Rain = 0
KES1 061227Z 10000KT 22/21 A2995 RMK A01 T02190207  RH  093%=      5-min Rain = 0
KES1 061228Z 10001KT 22/21 A2995 RMK A01 T02190207  RH  093%=      5-min Rain = 0
KES1 061229Z 00000KT 22/21 A2995 RMK A01 T02190207  RH  093%=      5-min Rain = 0
KES1 061230Z 00000KT 22/21 A2995 RMK A01 T02190207  RH  093%=      5-min Rain = 0
KES1 061231Z 05001KT 22/21 A2995 RMK A01 T02200207  RH  093%=      5-min Rain = 0
KES1 061232Z 01001KT 22/21 A2995 RMK A01 T02200207  RH  092%=      5-min Rain = 0
KES1 061233Z 01000KT 22/21 A2995 RMK A01 T02200207  RH  092%=      5-min Rain = 0
KES1 061234Z 00000KT 22/21 A2996 RMK A01 T02200207  RH  092%=      5-min Rain = 0
KES1 061235Z 00000KT 22/21 A2996 RMK A01 T02200207  RH  092%=      5-min Rain = 0
KES1 061236Z 00000KT 22/21 A2996 RMK A01 T02210207  RH  092%=      5-min Rain = 0
KES1 061237Z 00000KT 22/21 A2996 RMK A01 T02210207  RH  092%=      5-min Rain = 0
KES1 061238Z 00000KT 22/21 A2996 RMK A01 T02210207  RH  092%=      5-min Rain = 0
KES1 061239Z 00000KT 22/21 A2996 RMK A01 T02210207  RH  092%=      5-min Rain = 0
KES1 061240Z 00000KT 22/21 A2996 RMK A01 T02210207  RH  092%=      5-min Rain = 0
KES1 061241Z 00000KT 22/21 A2996 RMK A01 T02210207  RH  092%=      5-min Rain = 0
KES1 061242Z 00000KT 22/21 A2996 RMK A01 T02210207  RH  091%=      5-min Rain = 0
KES1 061243Z 12000KT 22/21 A2996 RMK A01 T02200205  RH  091%=      5-min Rain = 0
KES1 061244Z 12001KT 22/21 A2996 RMK A01 T02200205  RH  091%=      5-min Rain = 0
KES1 061245Z 12001KT 22/21 A2995 RMK A01 T02200205  RH  091%=      5-min Rain = 0
KES1 061246Z 12001KT 22/21 A2995 RMK A01 T02200205  RH  091%=      5-min Rain = 0
KES1 061247Z 14001KT 22/21 A2995 RMK A01 T02200205  RH  091%=      5-min Rain = 0
KES1 061248Z 14001KT 22/21 A2995 RMK A01 T02200205  RH  091%=      5-min Rain = 0
KES1 061249Z 14001KT 22/21 A2995 RMK A01 T02200206  RH  091%=      5-min Rain = 0
KES1 061250Z 15001KT 22/21 A2995 RMK A01 T02200206  RH  092%=      5-min Rain = 0
KES1 061251Z 14001KT 22/21 A2995 RMK A01 T02200206  RH  092%=      5-min Rain = 0
KES1 061252Z 14002KT 22/21 A2995 RMK A01 T02200206  RH  091%=      5-min Rain = 0
KES1 061253Z 14002KT 22/21 A2995 RMK A01 T02200206  RH  091%=      5-min Rain = 0
KES1 061254Z 15003KT 22/21 A2995 RMK A01 T02210206  RH  091%=      5-min Rain = 0
KES1 061255Z 14003KT 22/21 A2995 RMK A01 T02220208  RH  091%=      5-min Rain = 0
KES1 061256Z 14003KT 22/21 A2995 RMK A01 T02230208  RH  091%=      5-min Rain = 0
KES1 061257Z 15002KT 22/21 A2995 RMK A01 T02240208  RH  091%=      5-min Rain = 0
KES1 061258Z 15003KT 22/21 A2995 RMK A01 T02240208  RH  091%=      5-min Rain = 0
KES1 061259Z 15004KT 22/21 A2995 RMK A01 T02240208  RH  091%=      5-min Rain = 0
KES1 061300Z 15003KT 22/21 A2995 RMK A01 T02240208  RH  090%=      5-min Rain = 0
KES1 061301Z 15005KT 23/21 A2995 RMK A01 T02250208  RH  090%=      5-min Rain = 0
KES1 061302Z 14003KT 23/21 A2995 RMK A01 T02250208  RH  090%=      5-min Rain = 0
KES1 061303Z 15003KT 23/21 A2995 RMK A01 T02260209  RH  090%=      5-min Rain = 0
KES1 061304Z 15003KT 23/21 A2995 RMK A01 T02250209  RH  090%=      5-min Rain = 0
KES1 061305Z 14004KT 23/21 A2995 RMK A01 T02260209  RH  090%=      5-min Rain = 0
KES1 061306Z 15004KT 23/21 A2995 RMK A01 T02260209  RH  090%=      5-min Rain = 0
KES1 061307Z 15003KT 23/21 A2995 RMK A01 T02260209  RH  090%=      5-min Rain = 0
KES1 061308Z 14003KT 23/21 A2995 RMK A01 T02270209  RH  090%=      5-min Rain = 0
KES1 061309Z 14004KT 23/21 A2995 RMK A01 T02270209  RH  090%=      5-min Rain = 0
KES1 061310Z 14002KT 23/21 A2995 RMK A01 T02280209  RH  089%=      5-min Rain = 0
KES1 061311Z 15003KT 23/21 A2995 RMK A01 T02290210  RH  089%=      5-min Rain = 0
KES1 061312Z 15003KT 23/21 A2995 RMK A01 T02300210  RH  088%=      5-min Rain = 0
KES1 061313Z 14005KT 23/21 A2995 RMK A01 T02320210  RH  088%=      5-min Rain = 0
KES1 061314Z 14004KT 23/21 A2995 RMK A01 T02330210  RH  087%=      5-min Rain = 0
KES1 061315Z 15006KT 23/21 A2995 RMK A01 T02340210  RH  086%=      5-min Rain = 0
KES1 061316Z 16005KT 23/21 A2995 RMK A01 T02340209  RH  086%=      5-min Rain = 0
KES1 061317Z 15004KT 23/21 A2995 RMK A01 T02340209  RH  086%=      5-min Rain = 0
KES1 061318Z 16004KT 24/21 A2995 RMK A01 T02350210  RH  086%=      5-min Rain = 0
KES1 061319Z 14005KT 24/21 A2995 RMK A01 T02360210  RH  085%=      5-min Rain = 0
KES1 061320Z 14005KT 24/21 A2995 RMK A01 T02360209  RH  085%=      5-min Rain = 0
KES1 061321Z 14005KT 24/21 A2995 RMK A01 T02360209  RH  085%=      5-min Rain = 0
KES1 061322Z 14006KT 24/21 A2995 RMK A01 T02360209  RH  085%=      5-min Rain = 0
KES1 061323Z 14005KT 24/21 A2995 RMK A01 T02360209  RH  085%=      5-min Rain = 0
KES1 061324Z 15004KT 24/21 A2995 RMK A01 T02370209  RH  084%=      5-min Rain = 0
KES1 061325Z 14004KT 24/21 A2995 RMK A01 T02370209  RH  084%=      5-min Rain = 0
KES1 061326Z 15003KT 24/21 A2995 RMK A01 T02400211  RH  084%=      5-min Rain = 0
KES1 061327Z 14005KT 24/21 A2995 RMK A01 T02420211  RH  083%=      5-min Rain = 0
KES1 061328Z 16005KT 24/21 A2995 RMK A01 T02420210  RH  082%=      5-min Rain = 0
KES1 061329Z 15004KT 24/21 A2995 RMK A01 T02430210  RH  082%=      5-min Rain = 0
KES1 061330Z 16005KT 24/21 A2995 RMK A01 T02430210  RH  082%=      5-min Rain = 0
KES1 061331Z 14005KT 24/21 A2995 RMK A01 T02430209  RH  081%=      5-min Rain = 0
KES1 061332Z 15006KT 24/21 A2995 RMK A01 T02440209  RH  081%=      5-min Rain = 0
KES1 061333Z 17005KT 24/21 A2995 RMK A01 T02440210  RH  081%=      5-min Rain = 0
KES1 061334Z 16004KT 24/21 A2995 RMK A01 T02440209  RH  081%=      5-min Rain = 0
KES1 061335Z 16004KT 24/21 A2995 RMK A01 T02440209  RH  081%=      5-min Rain = 0
KES1 061336Z 17006KT 25/21 A2995 RMK A01 T02450209  RH  080%=      5-min Rain = 0
KES1 061337Z 18006KT 25/21 A2995 RMK A01 T02460208  RH  080%=      5-min Rain = 0
KES1 061338Z 16004KT 25/21 A2995 RMK A01 T02450209  RH  080%=      5-min Rain = 0
KES1 061339Z 17007KT 25/21 A2995 RMK A01 T02450208  RH  080%=      5-min Rain = 0
KES1 061340Z 17004KT 25/21 A2995 RMK A01 T02470209  RH  079%=      5-min Rain = 0
KES1 061341Z 17004KT 25/21 A2995 RMK A01 T02500209  RH  078%=      5-min Rain = 0
KES1 061342Z 17006KT 25/21 A2995 RMK A01 T02510208  RH  077%=      5-min Rain = 0
KES1 061343Z 16006KT 25/21 A2995 RMK A01 T02520207  RH  076%=      5-min Rain = 0
KES1 061344Z 16005KT 25/21 A2995 RMK A01 T02520207  RH  076%=      5-min Rain = 0
KES1 061345Z 17004KT 25/21 A2995 RMK A01 T02530206  RH  075%=      5-min Rain = 0
KES1 061346Z 16007KT 25/21 A2995 RMK A01 T02540205  RH  074%=      5-min Rain = 0
KES1 061347Z 18005KT 25/21 A2995 RMK A01 T02540205  RH  074%=      5-min Rain = 0
KES1 061348Z 18005KT 26/21 A2995 RMK A01 T02550206  RH  074%=      5-min Rain = 0
KES1 061349Z 17004KT 26/21 A2995 RMK A01 T02550208  RH  075%=      5-min Rain = 0
KES1 061350Z 17004KT 26/21 A2995 RMK A01 T02550206  RH  074%=      5-min Rain = 0
KES1 061351Z 16006KT 26/21 A2995 RMK A01 T02560206  RH  074%=      5-min Rain = 0
KES1 061352Z 17008KT 26/21 A2995 RMK A01 T02570205  RH  073%=      5-min Rain = 0
KES1 061353Z 18008KT 26/20 A2995 RMK A01 T02580202  RH  072%=      5-min Rain = 0
KES1 061354Z 18007KT 26/20 A2995 RMK A01 T02570202  RH  072%=      5-min Rain = 0
KES1 061355Z 17005KT 26/20 A2995 RMK A01 T02560202  RH  072%=      5-min Rain = 0
KES1 061356Z 19005KT 26/20 A2995 RMK A01 T02560202  RH  072%=      5-min Rain = 0
KES1 061357Z 18006KT 26/20 A2995 RMK A01 T02570201  RH  071%=      5-min Rain = 0
KES1 061358Z 18004KT 26/20 A2995 RMK A01 T02570202  RH  072%=      5-min Rain = 0
KES1 061359Z 17004KT 26/20 A2995 RMK A01 T02580201  RH  071%=      5-min Rain = 0
KES1 061400Z 17004KT 26/20 A2995 RMK A01 T02590201  RH  070%=      5-min Rain = 0
KES1 061401Z 16005KT 26/20 A2995 RMK A01 T02620201  RH  069%=      5-min Rain = 0
KES1 061402Z 18005KT 26/20 A2995 RMK A01 T02640201  RH  068%=      5-min Rain = 0
KES1 061403Z 19003KT 27/20 A2995 RMK A01 T02650201  RH  068%=      5-min Rain = 0
KES1 061404Z 17005KT 27/20 A2996 RMK A01 T02650201  RH  068%=      5-min Rain = 0
KES1 061405Z 17005KT 27/20 A2996 RMK A01 T02670199  RH  067%=      5-min Rain = 0
KES1 061406Z 18005KT 27/20 A2995 RMK A01 T02690200  RH  066%=      5-min Rain = 0
KES1 061407Z 17005KT 27/20 A2995 RMK A01 T02690200  RH  066%=      5-min Rain = 0
KES1 061408Z 17007KT 27/20 A2996 RMK A01 T02700200  RH  065%=      5-min Rain = 0
KES1 061409Z 17006KT 27/20 A2995 RMK A01 T02710200  RH  065%=      5-min Rain = 0
KES1 061410Z 17006KT 27/20 A2995 RMK A01 T02710200  RH  065%=      5-min Rain = 0
KES1 061411Z 18007KT 27/20 A2995 RMK A01 T02730200  RH  064%=      5-min Rain = 0
KES1 061412Z 17010KT 27/20 A2995 RMK A01 T02720198  RH  064%=      5-min Rain = 0
KES1 061413Z 16007KT 27/20 A2995 RMK A01 T02690197  RH  065%=      5-min Rain = 0
KES1 061414Z 16007KT 27/20 A2995 RMK A01 T02680197  RH  065%=      5-min Rain = 0
KES1 061415Z 19008KT 27/20 A2995 RMK A01 T02690197  RH  065%=      5-min Rain = 0
KES1 061416Z 19007KT 27/20 A2995 RMK A01 T02690197  RH  065%=      5-min Rain = 0
KES1 061417Z 18006KT 27/20 A2995 RMK A01 T02690198  RH  065%=      5-min Rain = 0
KES1 061418Z 19005KT 27/20 A2995 RMK A01 T02700198  RH  065%=      5-min Rain = 0
KES1 061419Z 19008KT 27/20 A2995 RMK A01 T02720198  RH  064%=      5-min Rain = 0
KES1 061420Z 16007KT 27/20 A2995 RMK A01 T02710200  RH  065%=      5-min Rain = 0
KES1 061421Z 16008KT 27/20 A2995 RMK A01 T02730199  RH  064%=      5-min Rain = 0
KES1 061422Z 17006KT 27/20 A2995 RMK A01 T02730199  RH  064%=      5-min Rain = 0
KES1 061423Z 17008KT 27/20 A2995 RMK A01 T02730200  RH  064%=      5-min Rain = 0
KES1 061424Z 17010KT 27/20 A2995 RMK A01 T02740198  RH  063%=      5-min Rain = 0
KES1 061425Z 17008KT 28/20 A2995 RMK A01 T02750198  RH  063%=      5-min Rain = 0
KES1 061426Z 17007KT 27/20 A2995 RMK A01 T02740198  RH  063%=      5-min Rain = 0
KES1 061427Z 16008KT 28/20 A2995 RMK A01 T02750198  RH  063%=      5-min Rain = 0
KES1 061428Z 17006KT 28/20 A2995 RMK A01 T02770196  RH  061%=      5-min Rain = 0
KES1 061429Z 19009KT 28/20 A2995 RMK A01 T02790195  RH  060%=      5-min Rain = 0
KES1 061430Z 19009KT 28/20 A2995 RMK A01 T02790195  RH  060%=      5-min Rain = 0
KES1 061431Z 18008KT 28/19 A2995 RMK A01 T02780194  RH  060%=      5-min Rain = 0
KES1 061432Z 17006KT 28/19 A2995 RMK A01 T02780194  RH  060%=      5-min Rain = 0
KES1 061433Z 17007KT 28/19 A2995 RMK A01 T02810194  RH  059%=      5-min Rain = 0
KES1 061434Z 18008KT 28/19 A2995 RMK A01 T02820194  RH  059%=      5-min Rain = 0
KES1 061435Z 17005KT 28/19 A2995 RMK A01 T02830194  RH  059%=      5-min Rain = 0
KES1 061436Z 18009KT 29/19 A2995 RMK A01 T02850194  RH  058%=      5-min Rain = 0
KES1 061437Z 18008KT 29/19 A2995 RMK A01 T02850194  RH  058%=      5-min Rain = 0
KES1 061438Z 17006KT 28/20 A2995 RMK A01 T02830195  RH  059%=      5-min Rain = 0
KES1 061439Z 18008KT 28/20 A2995 RMK A01 T02840195  RH  059%=      5-min Rain = 0
KES1 061440Z 18007KT 29/20 A2995 RMK A01 T02850195  RH  058%=      5-min Rain = 0
KES1 061441Z 17007KT 29/19 A2995 RMK A01 T02870194  RH  057%=      5-min Rain = 0
KES1 061442Z 18007KT 29/20 A2995 RMK A01 T02890195  RH  057%=      5-min Rain = 0
KES1 061443Z 20010KT 29/19 A2995 RMK A01 T02890193  RH  056%=      5-min Rain = 0
KES1 061444Z 20010KT 29/19 A2995 RMK A01 T02870192  RH  057%=      5-min Rain = 0
KES1 061445Z 20011KT 29/19 A2995 RMK A01 T02860192  RH  057%=      5-min Rain = 0
KES1 061446Z 20009KT 28/19 A2995 RMK A01 T02840190  RH  057%=      5-min Rain = 0
KES1 061447Z 19008KT 28/19 A2995 RMK A01 T02830190  RH  057%=      5-min Rain = 0
KES1 061448Z 19007KT 29/19 A2995 RMK A01 T02850189  RH  056%=      5-min Rain = 0
KES1 061449Z 19011KT 29/19 A2995 RMK A01 T02860189  RH  056%=      5-min Rain = 0
KES1 061450Z 18009KT 29/19 A2995 RMK A01 T02860190  RH  056%=      5-min Rain = 0
KES1 061451Z 19008KT 29/19 A2995 RMK A01 T02870191  RH  056%=      5-min Rain = 0
KES1 061452Z 19007KT 29/19 A2995 RMK A01 T02890192  RH  056%=      5-min Rain = 0
KES1 061453Z 19006KT 29/19 A2995 RMK A01 T02920194  RH  055%=      5-min Rain = 0
KES1 061454Z 18009G14KT 30/19 A2995 RMK A01 T02960194  RH  054%=      5-min Rain = 0
KES1 061455Z 18009KT 30/19 A2995 RMK A01 T02970191  RH  053%=      5-min Rain = 0
KES1 061456Z 18010KT 30/19 A2995 RMK A01 T02970191  RH  053%=      5-min Rain = 0
KES1 061457Z 18009KT 30/19 A2995 RMK A01 T02970190  RH  053%=      5-min Rain = 0
KES1 061458Z 20011KT 30/19 A2995 RMK A01 T02960190  RH  053%=      5-min Rain = 0
KES1 061459Z 20008G13KT 30/19 A2995 RMK A01 T02960190  RH  053%=      5-min Rain = 0
KES1 061500Z 19014KT 30/19 A2995 RMK A01 T02960189  RH  052%=      5-min Rain = 0
KES1 061501Z 20011KT 30/19 A2995 RMK A01 T02970189  RH  052%=      5-min Rain = 0
KES1 061502Z 21011KT 30/19 A2995 RMK A01 T02970190  RH  053%=      5-min Rain = 0
KES1 061503Z 20008KT 30/19 A2995 RMK A01 T02970190  RH  052%=      5-min Rain = 0
KES1 061504Z 20009KT 30/19 A2995 RMK A01 T02980191  RH  053%=      5-min Rain = 0
KES1 061505Z 22011KT 30/19 A2995 RMK A01 T02990191  RH  052%=      5-min Rain = 0
KES1 061506Z 21006KT 30/19 A2995 RMK A01 T02990192  RH  053%=      5-min Rain = 0
KES1 061507Z 21007KT 30/19 A2995 RMK A01 T03000193  RH  053%=      5-min Rain = 0
KES1 061508Z 21008KT 30/19 A2995 RMK A01 T03030193  RH  052%=      5-min Rain = 0
KES1 061509Z 19012KT 30/19 A2995 RMK A01 T03040191  RH  051%=      5-min Rain = 0
KES1 061510Z 19011G16KT 30/19 A2995 RMK A01 T03040189  RH  050%=      5-min Rain = 0
KES1 061511Z 19007KT 30/19 A2995 RMK A01 T03030189  RH  050%=      5-min Rain = 0
KES1 061512Z 19007KT 30/19 A2995 RMK A01 T03020190  RH  051%=      5-min Rain = 0
KES1 061513Z 19006KT 30/19 A2995 RMK A01 T03040190  RH  050%=      5-min Rain = 0
KES1 061514Z 22008KT 31/19 A2995 RMK A01 T03080192  RH  050%=      5-min Rain = 0
KES1 061515Z 20008KT 31/19 A2995 RMK A01 T03090189  RH  049%=      5-min Rain = 0
KES1 061516Z 22008KT 31/19 A2995 RMK A01 T03080189  RH  049%=      5-min Rain = 0
KES1 061517Z 22008KT 31/19 A2995 RMK A01 T03090190  RH  049%=      5-min Rain = 0
KES1 061518Z 22009KT 31/19 A2995 RMK A01 T03130187  RH  047%=      5-min Rain = 0
KES1 061519Z 23010KT 31/19 A2995 RMK A01 T03140188  RH  047%=      5-min Rain = 0
KES1 061520Z 22011G16KT 32/19 A2995 RMK A01 T03150187  RH  047%=      5-min Rain = 0
KES1 061521Z 20010KT 32/19 A2995 RMK A01 T03170187  RH  046%=      5-min Rain = 0
KES1 061522Z 21010KT 32/19 A2995 RMK A01 T03170185  RH  045%=      5-min Rain = 0
KES1 061523Z 21012KT 31/18 A2995 RMK A01 T03140184  RH  046%=      5-min Rain = 0
KES1 061524Z 22011KT 31/18 A2995 RMK A01 T03120184  RH  047%=      5-min Rain = 0
KES1 061525Z 22010KT 31/18 A2995 RMK A01 T03130184  RH  046%=      5-min Rain = 0
KES1 061526Z 21008KT 31/18 A2995 RMK A01 T03140184  RH  046%=      5-min Rain = 0
KES1 061527Z 21010KT 31/19 A2995 RMK A01 T03140185  RH  046%=      5-min Rain = 0
KES1 061528Z 22010KT 31/19 A2995 RMK A01 T03140185  RH  046%=      5-min Rain = 0
KES1 061529Z 19010KT 31/18 A2995 RMK A01 T03130184  RH  046%=      5-min Rain = 0
KES1 061530Z 20010KT 31/18 A2995 RMK A01 T03140183  RH  046%=      5-min Rain = 0
KES1 061531Z 20012KT 31/18 A2995 RMK A01 T03130183  RH  046%=      5-min Rain = 0
KES1 061532Z 20010KT 31/18 A2995 RMK A01 T03110184  RH  047%=      5-min Rain = 0
KES1 061533Z 22012KT 31/18 A2995 RMK A01 T03100182  RH  046%=      5-min Rain = 0
KES1 061534Z 21011G16KT 31/18 A2995 RMK A01 T03100181  RH  046%=      5-min Rain = 0
KES1 061535Z 22010KT 31/18 A2995 RMK A01 T03100182  RH  047%=      5-min Rain = 0
KES1 061536Z 20008KT 31/18 A2995 RMK A01 T03120182  RH  046%=      5-min Rain = 0
KES1 061537Z 22008KT 31/18 A2995 RMK A01 T03130182  RH  046%=      5-min Rain = 0
KES1 061538Z 22008KT 31/18 A2995 RMK A01 T03130182  RH  046%=      5-min Rain = 0
KES1 061539Z 21008KT 31/18 A2995 RMK A01 T03130182  RH  046%=      5-min Rain = 0
KES1 061540Z 21010KT 32/18 A2995 RMK A01 T03160179  RH  044%=      5-min Rain = 0
KES1 061541Z 20013KT 32/18 A2995 RMK A01 T03170178  RH  043%=      5-min Rain = 0
KES1 061542Z 21011KT 32/18 A2995 RMK A01 T03180178  RH  043%=      5-min Rain = 0
KES1 061543Z 20012KT 32/18 A2995 RMK A01 T03200178  RH  043%=      5-min Rain = 0
KES1 061544Z 21012KT 32/18 A2995 RMK A01 T03210178  RH  043%=      5-min Rain = 0
KES1 061545Z 22011KT 32/18 A2995 RMK A01 T03220179  RH  043%=      5-min Rain = 0
KES1 061546Z 22010KT 33/18 A2995 RMK A01 T03250178  RH  042%=      5-min Rain = 0
KES1 061547Z 22011KT 33/18 A2995 RMK A01 T03270178  RH  041%=      5-min Rain = 0
KES1 061548Z 23011G16KT 33/18 A2995 RMK A01 T03280178  RH  041%=      5-min Rain = 0
KES1 061549Z 22013KT 33/18 A2995 RMK A01 T03280177  RH  040%=      5-min Rain = 0
KES1 061550Z 22012KT 33/18 A2995 RMK A01 T03270176  RH  041%=      5-min Rain = 0
KES1 061551Z 22014KT 33/17 A2995 RMK A01 T03270174  RH  040%=      5-min Rain = 0
KES1 061552Z 23013KT 33/17 A2995 RMK A01 T03270173  RH  040%=      5-min Rain = 0
KES1 061553Z 24013KT 33/18 A2995 RMK A01 T03260175  RH  041%=      5-min Rain = 0
KES1 061554Z 24013KT 33/18 A2995 RMK A01 T03290176  RH  040%=      5-min Rain = 0
KES1 061555Z 23011KT 33/18 A2995 RMK A01 T03310176  RH  040%=      5-min Rain = 0
KES1 061556Z 22011KT 33/18 A2995 RMK A01 T03310177  RH  040%=      5-min Rain = 0
KES1 061557Z 20011KT 33/18 A2995 RMK A01 T03320176  RH  039%=      5-min Rain = 0
KES1 061558Z 20012KT 33/18 A2995 RMK A01 T03320176  RH  040%=      5-min Rain = 0
KES1 061559Z 21013KT 33/18 A2995 RMK A01 T03300175  RH  040%=      5-min Rain = 0
KES1 061600Z 22009KT 33/17 A2995 RMK A01 T03280174  RH  040%=      5-min Rain = 0
KES1 061601Z 22010KT 33/17 A2995 RMK A01 T03270174  RH  040%=      5-min Rain = 0
KES1 061602Z 23008KT 33/18 A2995 RMK A01 T03270175  RH  040%=      5-min Rain = 0
KES1 061603Z 22010KT 33/18 A2995 RMK A01 T03290175  RH  040%=      5-min Rain = 0
KES1 061604Z 23011KT 33/17 A2995 RMK A01 T03300174  RH  039%=      5-min Rain = 0
KES1 061605Z 23010KT 33/17 A2995 RMK A01 T03280172  RH  039%=      5-min Rain = 0
KES1 061606Z 23011KT 33/17 A2995 RMK A01 T03270172  RH  040%=      5-min Rain = 0
KES1 061607Z 22010KT 33/17 A2995 RMK A01 T03280173  RH  040%=      5-min Rain = 0
KES1 061608Z 19008KT 33/17 A2995 RMK A01 T03280174  RH  040%=      5-min Rain = 0
KES1 061609Z 19009KT 33/17 A2995 RMK A01 T03290174  RH  040%=      5-min Rain = 0
KES1 061610Z 20012KT 33/17 A2995 RMK A01 T03290174  RH  040%=      5-min Rain = 0
KES1 061611Z 21009KT 33/17 A2995 RMK A01 T03270172  RH  040%=      5-min Rain = 0
KES1 061612Z 21009KT 33/17 A2995 RMK A01 T03280173  RH  040%=      5-min Rain = 0
KES1 061613Z 20012KT 33/17 A2995 RMK A01 T03280171  RH  039%=      5-min Rain = 0
KES1 061614Z 20011KT 33/17 A2995 RMK A01 T03280170  RH  039%=      5-min Rain = 0
KES1 061615Z 21009KT 33/17 A2995 RMK A01 T03260171  RH  040%=      5-min Rain = 0
KES1 061616Z 21009KT 33/17 A2995 RMK A01 T03260172  RH  040%=      5-min Rain = 0
KES1 061617Z 21010KT 33/17 A2995 RMK A01 T03270172  RH  040%=      5-min Rain = 0
KES1 061618Z 21008KT 33/17 A2995 RMK A01 T03260172  RH  040%=      5-min Rain = 0
KES1 061619Z 20009KT 33/17 A2995 RMK A01 T03250173  RH  040%=      5-min Rain = 0
KES1 061620Z 22007KT 33/17 A2995 RMK A01 T03250173  RH  040%=      5-min Rain = 0
KES1 061621Z 22008KT 33/17 A2995 RMK A01 T03260173  RH  040%=      5-min Rain = 0
KES1 061622Z 21010KT 33/17 A2995 RMK A01 T03270173  RH  040%=      5-min Rain = 0
KES1 061623Z 20009KT 33/17 A2995 RMK A01 T03260172  RH  040%=      5-min Rain = 0
KES1 061624Z 20007KT 33/17 A2995 RMK A01 T03260172  RH  040%=      5-min Rain = 0
KES1 061625Z 21005KT 33/17 A2995 RMK A01 T03260173  RH  040%=      5-min Rain = 0
KES1 061626Z 21005KT 33/17 A2995 RMK A01 T03270173  RH  040%=      5-min Rain = 0
KES1 061627Z 20009KT 33/17 A2995 RMK A01 T03290172  RH  039%=      5-min Rain = 0
KES1 061628Z 19011KT 33/17 A2995 RMK A01 T03300169  RH  038%=      5-min Rain = 0
KES1 061629Z 19012KT 33/17 A2995 RMK A01 T03300165  RH  037%=      5-min Rain = 0
KES1 061630Z 20011KT 33/16 A2996 RMK A01 T03290163  RH  037%=      5-min Rain = 0
KES1 061631Z 21014KT 33/16 A2995 RMK A01 T03290162  RH  037%=      5-min Rain = 0
KES1 061632Z 20010KT 33/16 A2996 RMK A01 T03290161  RH  037%=      5-min Rain = 0
KES1 061633Z 20011G16KT 33/16 A2996 RMK A01 T03290161  RH  037%=      5-min Rain = 0
KES1 061634Z 21010KT 33/16 A2996 RMK A01 T03290159  RH  036%=      5-min Rain = 0
KES1 061635Z 20009KT 33/16 A2996 RMK A01 T03290159  RH  036%=      5-min Rain = 0
KES1 061636Z 19010KT 33/16 A2996 RMK A01 T03290159  RH  036%=      5-min Rain = 0
KES1 061637Z 20010KT 33/16 A2996 RMK A01 T03300158  RH  036%=      5-min Rain = 0
KES1 061638Z 20012KT 33/16 A2996 RMK A01 T03300159  RH  036%=      5-min Rain = 0
KES1 061639Z 20012KT 33/16 A2996 RMK A01 T03300156  RH  035%=      5-min Rain = 0
KES1 061640Z 20011KT 33/15 A2996 RMK A01 T03280154  RH  035%=      5-min Rain = 0
KES1 061641Z 20009KT 33/16 A2996 RMK A01 T03280155  RH  035%=      5-min Rain = 0
KES1 061642Z 21011KT 33/16 A2996 RMK A01 T03300156  RH  035%=      5-min Rain = 0
KES1 061643Z 21012KT 33/16 A2996 RMK A01 T03300157  RH  035%=      5-min Rain = 0
KES1 061644Z 21011KT 33/16 A2996 RMK A01 T03300157  RH  035%=      5-min Rain = 0
KES1 061645Z 20012KT 33/16 A2996 RMK A01 T03290155  RH  035%=      5-min Rain = 0
KES1 061646Z 20013KT 33/16 A2996 RMK A01 T03300155  RH  035%=      5-min Rain = 0
KES1 061647Z 21010KT 33/16 A2996 RMK A01 T03300155  RH  035%=      5-min Rain = 0
KES1 061648Z 20011KT 33/16 A2996 RMK A01 T03290155  RH  035%=      5-min Rain = 0
KES1 061649Z 20011KT 33/16 A2996 RMK A01 T03280155  RH  035%=      5-min Rain = 0
KES1 061650Z 20010KT 33/16 A2996 RMK A01 T03290156  RH  035%=      5-min Rain = 0
KES1 061651Z 19008KT 33/16 A2996 RMK A01 T03300157  RH  035%=      5-min Rain = 0
KES1 061652Z 20010KT 33/16 A2996 RMK A01 T03310158  RH  035%=      5-min Rain = 0
KES1 061653Z 20012KT 33/16 A2996 RMK A01 T03320159  RH  035%=      5-min Rain = 0
KES1 061654Z 20011KT 33/16 A2996 RMK A01 T03320159  RH  035%=      5-min Rain = 0
KES1 061655Z 21010KT 33/16 A2996 RMK A01 T03320159  RH  035%=      5-min Rain = 0
KES1 061656Z 21009KT 33/16 A2996 RMK A01 T03310160  RH  036%=      5-min Rain = 0
KES1 061657Z 22012KT 33/16 A2996 RMK A01 T03320159  RH  035%=      5-min Rain = 0
KES1 061658Z 21012KT 33/16 A2996 RMK A01 T03330159  RH  035%=      5-min Rain = 0
KES1 061659Z 21010KT 34/16 A2996 RMK A01 T03350160  RH  035%=      5-min Rain = 0
KES1 061700Z 24009KT 34/16 A2996 RMK A01 T03350162  RH  036%=      5-min Rain = 0
KES1 061701Z 23009KT 34/16 A2996 RMK A01 T03380163  RH  035%=      5-min Rain = 0
KES1 061702Z 20008KT 34/17 A2996 RMK A01 T03400165  RH  035%=      5-min Rain = 0
KES1 061703Z 21011KT 34/17 A2996 RMK A01 T03420166  RH  035%=      5-min Rain = 0
KES1 061704Z 21008KT 34/17 A2996 RMK A01 T03410166  RH  035%=      5-min Rain = 0
KES1 061705Z 19007KT 34/17 A2996 RMK A01 T03400168  RH  036%=      5-min Rain = 0
KES1 061706Z 17008KT 35/17 A2996 RMK A01 T03450170  RH  035%=      5-min Rain = 0
KES1 061707Z 18009G15KT 35/17 A2996 RMK A01 T03480170  RH  035%=      5-min Rain = 0
KES1 061708Z 19008KT 35/17 A2996 RMK A01 T03480169  RH  034%=      5-min Rain = 0
KES1 061709Z 19007KT 35/17 A2996 RMK A01 T03470169  RH  035%=      5-min Rain = 0
KES1 061710Z 17008KT 35/17 A2996 RMK A01 T03450169  RH  035%=      5-min Rain = 0
KES1 061711Z 20008KT 35/17 A2996 RMK A01 T03450170  RH  035%=      5-min Rain = 0
KES1 061712Z 19006KT 35/17 A2996 RMK A01 T03460169  RH  035%=      5-min Rain = 0
KES1 061713Z 20009G14KT 35/17 A2996 RMK A01 T03460169  RH  035%=      5-min Rain = 0
KES1 061714Z 22009KT 34/17 A2996 RMK A01 T03440167  RH  035%=      5-min Rain = 0
KES1 061715Z 21013KT 34/17 A2996 RMK A01 T03420166  RH  035%=      5-min Rain = 0
KES1 061716Z 21009KT 34/17 A2996 RMK A01 T03380166  RH  036%=      5-min Rain = 0
KES1 061717Z 20008KT 34/17 A2996 RMK A01 T03370166  RH  036%=      5-min Rain = 0
KES1 061718Z 16008KT 34/17 A2996 RMK A01 T03370166  RH  036%=      5-min Rain = 0
KES1 061719Z 17009KT 34/17 A2996 RMK A01 T03390167  RH  036%=      5-min Rain = 0
KES1 061720Z 19010KT 34/17 A2996 RMK A01 T03390165  RH  035%=      5-min Rain = 0
KES1 061721Z 20007KT 34/16 A2996 RMK A01 T03350164  RH  036%=      5-min Rain = 0
KES1 061722Z 17010KT 33/16 A2996 RMK A01 T03330164  RH  036%=      5-min Rain = 0
KES1 061723Z 18011KT 33/16 A2996 RMK A01 T03340164  RH  036%=      5-min Rain = 0
KES1 061724Z 18011KT 34/16 A2996 RMK A01 T03350164  RH  036%=      5-min Rain = 0
KES1 061725Z 18012KT 33/16 A2996 RMK A01 T03340164  RH  036%=      5-min Rain = 0
KES1 061726Z 18008KT 33/16 A2996 RMK A01 T03330163  RH  036%=      5-min Rain = 0
KES1 061727Z 19009KT 33/16 A2996 RMK A01 T03330164  RH  036%=      5-min Rain = 0
KES1 061728Z 22006KT 33/16 A2996 RMK A01 T03340164  RH  036%=      5-min Rain = 0
KES1 061729Z 22005G10KT 34/16 A2995 RMK A01 T03350164  RH  036%=      5-min Rain = 0
KES1 061730Z 21009KT 34/16 A2995 RMK A01 T03360164  RH  036%=      5-min Rain = 0
KES1 061731Z 21011KT 34/16 A2995 RMK A01 T03350162  RH  036%=      5-min Rain = 0
KES1 061732Z 20009KT 33/16 A2995 RMK A01 T03330163  RH  036%=      5-min Rain = 0
KES1 061733Z 20010KT 33/16 A2995 RMK A01 T03320163  RH  036%=      5-min Rain = 0
KES1 061734Z 18011KT 33/16 A2995 RMK A01 T03320163  RH  036%=      5-min Rain = 0
KES1 061735Z 18008KT 33/16 A2995 RMK A01 T03320162  RH  036%=      5-min Rain = 0
KES1 061736Z 18007G14KT 33/16 A2995 RMK A01 T03320162  RH  036%=      5-min Rain = 0
KES1 061737Z 20009KT 33/16 A2995 RMK A01 T03320162  RH  036%=      5-min Rain = 0
KES1 061738Z 20008KT 33/16 A2995 RMK A01 T03310162  RH  036%=      5-min Rain = 0
KES1 061739Z 20007KT 33/16 A2995 RMK A01 T03300162  RH  037%=      5-min Rain = 0
KES1 061740Z 20007KT 33/16 A2995 RMK A01 T03300162  RH  037%=      5-min Rain = 0
KES1 061741Z 20005KT 33/16 A2995 RMK A01 T03290163  RH  037%=      5-min Rain = 0
KES1 061742Z 19011KT 33/16 A2995 RMK A01 T03310163  RH  037%=      5-min Rain = 0
KES1 061743Z 20009KT 33/16 A2995 RMK A01 T03320162  RH  036%=      5-min Rain = 0
KES1 061744Z 21010KT 33/16 A2995 RMK A01 T03320162  RH  036%=      5-min Rain = 0
KES1 061745Z 20007KT 33/16 A2995 RMK A01 T03300162  RH  036%=      5-min Rain = 0
KES1 061746Z 20005KT 33/16 A2995 RMK A01 T03290162  RH  037%=      5-min Rain = 0
KES1 061747Z 18009KT 33/16 A2995 RMK A01 T03300163  RH  037%=      5-min Rain = 0
KES1 061748Z 18010KT 33/16 A2995 RMK A01 T03330163  RH  036%=      5-min Rain = 0
KES1 061749Z 19012KT 33/16 A2995 RMK A01 T03330162  RH  036%=      5-min Rain = 0
KES1 061750Z 19009KT 33/16 A2995 RMK A01 T03310160  RH  036%=      5-min Rain = 0
KES1 061751Z 19007KT 33/16 A2995 RMK A01 T03300161  RH  036%=      5-min Rain = 0
KES1 061752Z 18007KT 33/16 A2995 RMK A01 T03300161  RH  036%=      5-min Rain = 0
KES1 061753Z 21007KT 33/16 A2995 RMK A01 T03290161  RH  037%=      5-min Rain = 0
KES1 061754Z 20007KT 33/16 A2995 RMK A01 T03300162  RH  037%=      5-min Rain = 0
KES1 061755Z 20008KT 33/16 A2995 RMK A01 T03310162  RH  036%=      5-min Rain = 0
KES1 061756Z 20008KT 33/16 A2995 RMK A01 T03310161  RH  036%=      5-min Rain = 0
KES1 061757Z 21006KT 33/16 A2996 RMK A01 T03310162  RH  036%=      5-min Rain = 0
KES1 061758Z 22007KT 33/16 A2996 RMK A01 T03310161  RH  036%=      5-min Rain = 0
KES1 061759Z 21006KT 33/16 A2996 RMK A01 T03310160  RH  036%=      5-min Rain = 0
KES1 061800Z 20008KT 33/16 A2996 RMK A01 T03310161  RH  036%=      5-min Rain = 0
KES1 061801Z 22009KT 33/16 A2996 RMK A01 T03300162  RH  037%=      5-min Rain = 0
KES1 061802Z 21009KT 33/16 A2996 RMK A01 T03290162  RH  037%=      5-min Rain = 0
KES1 061803Z 19008KT 33/16 A2995 RMK A01 T03280162  RH  037%=      5-min Rain = 0
KES1 061804Z 18009KT 33/16 A2995 RMK A01 T03280161  RH  037%=      5-min Rain = 0
KES1 061805Z 18008KT 33/16 A2995 RMK A01 T03280160  RH  036%=      5-min Rain = 0
KES1 061806Z 19008KT 33/16 A2995 RMK A01 T03280159  RH  036%=      5-min Rain = 0
KES1 061807Z 20007KT 33/16 A2996 RMK A01 T03290161  RH  036%=      5-min Rain = 0
KES1 061808Z 19008KT 33/16 A2996 RMK A01 T03300161  RH  036%=      5-min Rain = 0
KES1 061809Z 19007KT 33/16 A2995 RMK A01 T03300160  RH  036%=      5-min Rain = 0
KES1 061810Z 19007KT 33/16 A2995 RMK A01 T03310161  RH  036%=      5-min Rain = 0
KES1 061811Z 19005KT 33/16 A2995 RMK A01 T03320161  RH  036%=      5-min Rain = 0
KES1 061812Z 19009KT 33/16 A2995 RMK A01 T03320161  RH  036%=      5-min Rain = 0
KES1 061813Z 20010KT 33/16 A2996 RMK A01 T03330159  RH  035%=      5-min Rain = 0
KES1 061814Z 20009KT 33/16 A2996 RMK A01 T03330159  RH  035%=      5-min Rain = 0
KES1 061815Z 20010KT 33/16 A2996 RMK A01 T03310158  RH  035%=      5-min Rain = 0
KES1 061816Z 20007KT 33/16 A2996 RMK A01 T03310159  RH  036%=      5-min Rain = 0
KES1 061817Z 20009KT 33/16 A2995 RMK A01 T03320159  RH  035%=      5-min Rain = 0
KES1 061818Z 21010KT 33/16 A2995 RMK A01 T03330159  RH  035%=      5-min Rain = 0
KES1 061819Z 20009KT 33/16 A2995 RMK A01 T03330158  RH  035%=      5-min Rain = 0
KES1 061820Z 20008KT 33/16 A2995 RMK A01 T03320158  RH  035%=      5-min Rain = 0
KES1 061821Z 20009KT 33/16 A2995 RMK A01 T03320158  RH  035%=      5-min Rain = 0
KES1 061822Z 21008KT 33/16 A2995 RMK A01 T03310157  RH  035%=      5-min Rain = 0
KES1 061823Z 20007KT 33/16 A2995 RMK A01 T03310157  RH  035%=      5-min Rain = 0
KES1 061824Z 20006KT 33/16 A2995 RMK A01 T03300157  RH  035%=      5-min Rain = 0
KES1 061825Z 21007KT 33/16 A2995 RMK A01 T03310159  RH  036%=      5-min Rain = 0
KES1 061826Z 20009KT 33/16 A2995 RMK A01 T03320158  RH  035%=      5-min Rain = 0
KES1 061827Z 19008KT 33/16 A2995 RMK A01 T03310158  RH  035%=      5-min Rain = 0
KES1 061828Z 20008KT 33/16 A2995 RMK A01 T03290159  RH  036%=      5-min Rain = 0
KES1 061829Z 19006KT 33/16 A2995 RMK A01 T03290158  RH  036%=      5-min Rain = 0
KES1 061830Z 20006KT 33/16 A2995 RMK A01 T03290159  RH  036%=      5-min Rain = 0
KES1 061831Z 19005KT 33/16 A2995 RMK A01 T03280161  RH  037%=      5-min Rain = 0
KES1 061832Z 19006KT 33/16 A2995 RMK A01 T03290160  RH  036%=      5-min Rain = 0
KES1 061833Z 19005KT 33/16 A2995 RMK A01 T03290160  RH  036%=      5-min Rain = 0
KES1 061834Z 19004KT 33/16 A2995 RMK A01 T03290160  RH  036%=      5-min Rain = 0
KES1 061835Z 18003KT 33/16 A2995 RMK A01 T03300161  RH  036%=      5-min Rain = 0
KES1 061836Z 15005KT 33/16 A2995 RMK A01 T03310161  RH  036%=      5-min Rain = 0
KES1 061837Z 15004KT 33/16 A2995 RMK A01 T03320161  RH  036%=      5-min Rain = 0
KES1 061838Z 19003KT 33/16 A2995 RMK A01 T03340162  RH  036%=      5-min Rain = 0
KES1 061839Z 19005KT 34/16 A2995 RMK A01 T03350161  RH  035%=      5-min Rain = 0
KES1 061840Z 19004KT 34/16 A2995 RMK A01 T03350160  RH  035%=      5-min Rain = 0
KES1 061841Z 20006KT 34/16 A2995 RMK A01 T03350161  RH  035%=      5-min Rain = 0
KES1 061842Z 18007KT 34/16 A2995 RMK A01 T03350161  RH  035%=      5-min Rain = 0
KES1 061843Z 18005KT 34/16 A2995 RMK A01 T03350160  RH  035%=      5-min Rain = 0
KES1 061844Z 18005KT 34/16 A2995 RMK A01 T03350160  RH  035%=      5-min Rain = 0
KES1 061845Z 18005KT 33/16 A2995 RMK A01 T03340161  RH  036%=      5-min Rain = 0
KES1 061846Z 15006KT 33/16 A2995 RMK A01 T03330162  RH  036%=      5-min Rain = 0
KES1 061847Z 16005KT 33/16 A2995 RMK A01 T03340162  RH  036%=      5-min Rain = 0
KES1 061848Z 15005KT 33/16 A2995 RMK A01 T03340162  RH  036%=      5-min Rain = 0
KES1 061849Z 16003KT 33/16 A2995 RMK A01 T03330161  RH  036%=      5-min Rain = 0
KES1 061850Z 15003KT 33/16 A2995 RMK A01 T03320161  RH  036%=      5-min Rain = 0
KES1 061851Z 13003KT 33/16 A2995 RMK A01 T03330162  RH  036%=      5-min Rain = 0
KES1 061852Z 13004KT 33/16 A2995 RMK A01 T03320160  RH  036%=      5-min Rain = 0
KES1 061853Z 13002KT 33/16 A2995 RMK A01 T03320159  RH  036%=      5-min Rain = 0
KES1 061854Z 18001KT 33/16 A2995 RMK A01 T03320160  RH  036%=      5-min Rain = 0
KES1 061855Z 15001KT 33/16 A2995 RMK A01 T03310160  RH  036%=      5-min Rain = 0
KES1 061856Z 15004KT 33/16 A2995 RMK A01 T03320161  RH  036%=      5-min Rain = 0
KES1 061857Z 15004KT 33/16 A2995 RMK A01 T03340161  RH  036%=      5-min Rain = 0
KES1 061858Z 16002KT 34/16 A2995 RMK A01 T03350162  RH  036%=      5-min Rain = 0
KES1 061859Z 14001KT 34/16 A2995 RMK A01 T03350163  RH  036%=      5-min Rain = 0
KES1 061900Z 11002KT 34/17 A2995 RMK A01 T03360165  RH  036%=      5-min Rain = 0
KES1 061901Z 09004KT 34/17 A2995 RMK A01 T03360166  RH  036%=      5-min Rain = 0
KES1 061902Z 10004KT 34/16 A2995 RMK A01 T03350162  RH  036%=      5-min Rain = 0
KES1 061903Z 11005KT 33/16 A2995 RMK A01 T03340162  RH  036%=      5-min Rain = 0
KES1 061904Z 12006KT 33/16 A2995 RMK A01 T03330162  RH  036%=      5-min Rain = 0
KES1 061905Z 12004KT 33/16 A2995 RMK A01 T03330162  RH  036%=      5-min Rain = 0
KES1 061906Z 13002KT 33/16 A2995 RMK A01 T03340163  RH  036%=      5-min Rain = 0
KES1 061907Z 15004KT 34/16 A2995 RMK A01 T03350163  RH  036%=      5-min Rain = 0
KES1 061908Z 17003KT 34/16 A2995 RMK A01 T03350162  RH  036%=      5-min Rain = 0
KES1 061909Z 20002KT 34/16 A2995 RMK A01 T03350162  RH  035%=      5-min Rain = 0
KES1 061910Z 18004KT 34/16 A2995 RMK A01 T03350162  RH  036%=      5-min Rain = 0
KES1 061911Z 19003KT 34/16 A2995 RMK A01 T03350162  RH  036%=      5-min Rain = 0
KES1 061912Z 17004G9KT 33/16 A2995 RMK A01 T03340163  RH  036%=      5-min Rain = 0
KES1 061913Z 10006KT 34/16 A2995 RMK A01 T03350164  RH  036%=      5-min Rain = 0
KES1 061914Z 13006KT 34/16 A2995 RMK A01 T03350164  RH  036%=      5-min Rain = 0
KES1 061915Z 14005KT 34/16 A2995 RMK A01 T03360164  RH  036%=      5-min Rain = 0
KES1 061916Z 13003KT 33/16 A2995 RMK A01 T03340163  RH  036%=      5-min Rain = 0
KES1 061917Z 14002KT 33/16 A2995 RMK A01 T03330163  RH  036%=      5-min Rain = 0
KES1 061918Z 16002KT 33/16 A2995 RMK A01 T03330164  RH  036%=      5-min Rain = 0
KES1 061919Z 14002KT 33/16 A2996 RMK A01 T03330163  RH  036%=      5-min Rain = 0
KES1 061920Z 13002KT 33/16 A2996 RMK A01 T03330163  RH  036%=      5-min Rain = 0
KES1 061921Z 15002KT 33/16 A2996 RMK A01 T03340164  RH  036%=      5-min Rain = 0
KES1 061922Z 15002KT 33/16 A2996 RMK A01 T03340163  RH  036%=      5-min Rain = 0
KES1 061923Z 14002KT 33/16 A2996 RMK A01 T03330163  RH  036%=      5-min Rain = 0
KES1 061924Z 15002KT 33/16 A2996 RMK A01 T03330163  RH  036%=      5-min Rain = 0
KES1 061925Z 15002KT 33/16 A2996 RMK A01 T03330163  RH  036%=      5-min Rain = 0
KES1 061926Z 12002KT 33/16 A2996 RMK A01 T03330163  RH  036%=      5-min Rain = 0
KES1 061927Z 09003KT 33/16 A2996 RMK A01 T03320163  RH  036%=      5-min Rain = 0
KES1 061928Z 09003KT 33/16 A2996 RMK A01 T03310162  RH  036%=      5-min Rain = 0
KES1 061929Z 09002KT 33/16 A2996 RMK A01 T03310163  RH  037%=      5-min Rain = 0
KES1 061930Z 09003KT 33/16 A2995 RMK A01 T03300162  RH  037%=      5-min Rain = 0
KES1 061931Z 10003KT 33/16 A2995 RMK A01 T03300163  RH  037%=      5-min Rain = 0
KES1 061932Z 11002KT 33/16 A2995 RMK A01 T03300163  RH  037%=      5-min Rain = 0
KES1 061933Z 11001KT 33/16 A2995 RMK A01 T03300162  RH  037%=      5-min Rain = 0
KES1 061934Z 00000KT 33/16 A2996 RMK A01 T03300163  RH  037%=      5-min Rain = 0
KES1 061935Z 02000KT 33/16 A2996 RMK A01 T03300163  RH  037%=      5-min Rain = 0
KES1 061936Z 01001KT 33/16 A2996 RMK A01 T03300162  RH  037%=      5-min Rain = 0
KES1 061937Z 04002KT 33/16 A2995 RMK A01 T03310163  RH  037%=      5-min Rain = 0
KES1 061938Z 04004KT 33/17 A2995 RMK A01 T03310172  RH  039%=      5-min Rain = 0
KES1 061939Z 05005KT 33/18 A2995 RMK A01 T03300180  RH  041%=      5-min Rain = 0
KES1 061940Z 06006KT 33/18 A2995 RMK A01 T03260184  RH  043%=      5-min Rain = 0
KES1 061941Z 05007KT 32/19 A2995 RMK A01 T03220188  RH  045%=      5-min Rain = 0
KES1 061942Z 05006KT 32/18 A2995 RMK A01 T03180184  RH  045%=      5-min Rain = 0
KES1 061943Z 06006KT 32/18 A2994 RMK A01 T03170182  RH  045%=      5-min Rain = 0
KES1 061944Z 07006KT 32/19 A2994 RMK A01 T03160189  RH  047%=      5-min Rain = 0
KES1 061945Z 08007KT 32/19 A2994 RMK A01 T03160188  RH  047%=      5-min Rain = 0
KES1 061946Z 08007KT 32/19 A2994 RMK A01 T03150186  RH  046%=      5-min Rain = 0
KES1 061947Z 08007KT 32/19 A2994 RMK A01 T03160187  RH  046%=      5-min Rain = 0
KES1 061948Z 09006KT 32/19 A2994 RMK A01 T03170185  RH  046%=      5-min Rain = 0
KES1 061949Z 10007KT 32/19 A2994 RMK A01 T03180185  RH  045%=      5-min Rain = 0
KES1 061950Z 10007KT 32/18 A2994 RMK A01 T03200180  RH  043%=      5-min Rain = 0
KES1 061951Z 11006KT 32/18 A2994 RMK A01 T03220179  RH  043%=      5-min Rain = 0
KES1 061952Z 10006KT 32/18 A2994 RMK A01 T03230179  RH  042%=      5-min Rain = 0
KES1 061953Z 10005KT 32/18 A2994 RMK A01 T03240180  RH  042%=      5-min Rain = 0
KES1 061954Z 10006KT 33/18 A2994 RMK A01 T03250177  RH  041%=      5-min Rain = 0
KES1 061955Z 11007KT 33/17 A2994 RMK A01 T03250173  RH  040%=      5-min Rain = 0
KES1 061956Z 11007KT 33/17 A2994 RMK A01 T03260174  RH  040%=      5-min Rain = 0
KES1 061957Z 11007KT 33/17 A2994 RMK A01 T03260173  RH  040%=      5-min Rain = 0
KES1 061958Z 11007KT 33/17 A2994 RMK A01 T03260174  RH  040%=      5-min Rain = 0
KES1 061959Z 10007KT 33/18 A2994 RMK A01 T03260176  RH  041%=      5-min Rain = 0
KES1 062000Z 10009KT 33/17 A2994 RMK A01 T03260173  RH  040%=      5-min Rain = 0
KES1 062001Z 10008KT 33/17 A2994 RMK A01 T03260174  RH  040%=      5-min Rain = 0
KES1 062002Z 11007KT 33/17 A2994 RMK A01 T03260174  RH  040%=      5-min Rain = 0
KES1 062003Z 12007KT 33/18 A2994 RMK A01 T03260176  RH  041%=      5-min Rain = 0
KES1 062004Z 11009KT 33/17 A2993 RMK A01 T03260174  RH  040%=      5-min Rain = 0
KES1 062005Z 11008KT 33/17 A2993 RMK A01 T03270171  RH  039%=      5-min Rain = 0
KES1 062006Z 12008KT 33/17 A2993 RMK A01 T03270173  RH  040%=      5-min Rain = 0
KES1 062007Z 12007KT 33/17 A2993 RMK A01 T03280174  RH  040%=      5-min Rain = 0
KES1 062008Z 12007KT 33/18 A2993 RMK A01 T03300175  RH  040%=      5-min Rain = 0
KES1 062009Z 13007KT 33/18 A2993 RMK A01 T03320175  RH  039%=      5-min Rain = 0
KES1 062010Z 12010KT 33/17 A2993 RMK A01 T03330173  RH  039%=      5-min Rain = 0
KES1 062011Z 12009KT 33/17 A2993 RMK A01 T03340172  RH  038%=      5-min Rain = 0
KES1 062012Z 13011KT 33/17 A2993 RMK A01 T03340171  RH  038%=      5-min Rain = 0
KES1 062013Z 12012KT 33/17 A2993 RMK A01 T03340171  RH  038%=      5-min Rain = 0
KES1 062014Z 11011KT 33/17 A2992 RMK A01 T03340170  RH  038%=      5-min Rain = 0
KES1 062015Z 12010KT 33/17 A2993 RMK A01 T03340171  RH  038%=      5-min Rain = 0
KES1 062016Z 12008KT 34/17 A2993 RMK A01 T03360173  RH  038%=      5-min Rain = 0
KES1 062017Z 12009KT 34/18 A2993 RMK A01 T03390175  RH  038%=      5-min Rain = 0
KES1 062018Z 12009G14KT 34/18 A2993 RMK A01 T03440176  RH  037%=      5-min Rain = 0
KES1 062019Z 12010KT 35/17 A2993 RMK A01 T03450173  RH  036%=      5-min Rain = 0
KES1 062020Z 12010KT 34/17 A2992 RMK A01 T03440173  RH  036%=      5-min Rain = 0
KES1 062021Z 12012KT 34/17 A2992 RMK A01 T03440173  RH  036%=      5-min Rain = 0
KES1 062022Z 11010KT 34/17 A2992 RMK A01 T03440172  RH  036%=      5-min Rain = 0
KES1 062023Z 11009KT 35/17 A2992 RMK A01 T03450173  RH  036%=      5-min Rain = 0
KES1 062024Z 10010KT 35/17 A2992 RMK A01 T03470172  RH  035%=      5-min Rain = 0
KES1 062025Z 10011KT 35/17 A2992 RMK A01 T03470171  RH  035%=      5-min Rain = 0
KES1 062026Z 10011KT 35/17 A2992 RMK A01 T03470171  RH  035%=      5-min Rain = 0
KES1 062027Z 12011KT 35/17 A2992 RMK A01 T03470171  RH  035%=      5-min Rain = 0
KES1 062028Z 12009KT 35/17 A2992 RMK A01 T03470170  RH  035%=      5-min Rain = 0
KES1 062029Z 11008KT 35/17 A2992 RMK A01 T03470172  RH  035%=      5-min Rain = 0
KES1 062030Z 12008KT 35/17 A2992 RMK A01 T03490172  RH  035%=      5-min Rain = 0
KES1 062031Z 13008KT 35/17 A2992 RMK A01 T03490171  RH  035%=      5-min Rain = 0
KES1 062032Z 12008KT 35/17 A2992 RMK A01 T03510173  RH  035%=      5-min Rain = 0
KES1 062033Z 11008KT 36/17 A2992 RMK A01 T03550173  RH  034%=      5-min Rain = 0
KES1 062034Z 12008KT 36/17 A2992 RMK A01 T03560172  RH  034%=      5-min Rain = 0
KES1 062035Z 12009KT 35/17 A2992 RMK A01 T03540172  RH  034%=      5-min Rain = 0
KES1 062036Z 12010KT 35/17 A2992 RMK A01 T03530170  RH  034%=      5-min Rain = 0
KES1 062037Z 14010KT 35/17 A2992 RMK A01 T03520170  RH  034%=      5-min Rain = 0
KES1 062038Z 13008G13KT 35/17 A2992 RMK A01 T03520171  RH  034%=      5-min Rain = 0
KES1 062039Z 12009KT 35/17 A2992 RMK A01 T03530168  RH  033%=      5-min Rain = 0
KES1 062040Z 13008KT 35/17 A2992 RMK A01 T03530169  RH  034%=      5-min Rain = 0
KES1 062041Z 13009G15KT 35/17 A2992 RMK A01 T03530168  RH  033%=      5-min Rain = 0
KES1 062042Z 14010KT 35/17 A2992 RMK A01 T03540166  RH  033%=      5-min Rain = 0
KES1 062043Z 15012KT 35/16 A2992 RMK A01 T03540164  RH  032%=      5-min Rain = 0
KES1 062044Z 15010KT 36/16 A2992 RMK A01 T03560161  RH  032%=      5-min Rain = 0
KES1 062045Z 14008KT 36/16 A2992 RMK A01 T03560163  RH  032%=      5-min Rain = 0
KES1 062046Z 14010KT 36/17 A2992 RMK A01 T03570166  RH  032%=      5-min Rain = 0
KES1 062047Z 15009KT 36/17 A2992 RMK A01 T03580167  RH  032%=      5-min Rain = 0
KES1 062048Z 17007KT 36/16 A2992 RMK A01 T03590164  RH  032%=      5-min Rain = 0
KES1 062049Z 16010KT 36/16 A2991 RMK A01 T03590163  RH  031%=      5-min Rain = 0
KES1 062050Z 14009KT 36/16 A2991 RMK A01 T03590163  RH  031%=      5-min Rain = 0
KES1 062051Z 14007KT 36/17 A2991 RMK A01 T03590165  RH  032%=      5-min Rain = 0
KES1 062052Z 15010KT 36/17 A2991 RMK A01 T03600167  RH  032%=      5-min Rain = 0
KES1 062053Z 15008KT 36/17 A2991 RMK A01 T03610165  RH  031%=      5-min Rain = 0
KES1 062054Z 16008KT 36/16 A2991 RMK A01 T03610163  RH  031%=      5-min Rain = 0
KES1 062055Z 15009KT 36/16 A2991 RMK A01 T03640157  RH  029%=      5-min Rain = 0
KES1 062056Z 16006KT 37/15 A2991 RMK A01 T03660153  RH  028%=      5-min Rain = 0
KES1 062057Z 16008KT 37/15 A2991 RMK A01 T03680151  RH  028%=      5-min Rain = 0
KES1 062058Z 17012KT 37/15 A2991 RMK A01 T03690148  RH  027%=      5-min Rain = 0
KES1 062059Z 17009KT 37/15 A2991 RMK A01 T03670149  RH  027%=      5-min Rain = 0
KES1 062100Z 15010KT 37/15 A2991 RMK A01 T03650152  RH  028%=      5-min Rain = 0
KES1 062101Z 14010KT 37/15 A2991 RMK A01 T03650154  RH  029%=      5-min Rain = 0
KES1 062102Z 15012KT 36/16 A2991 RMK A01 T03640155  RH  029%=      5-min Rain = 0
KES1 062103Z 14010KT 36/15 A2991 RMK A01 T03630154  RH  029%=      5-min Rain = 0
KES1 062104Z 15009KT 36/15 A2991 RMK A01 T03620154  RH  029%=      5-min Rain = 0
KES1 062105Z 15007KT 36/16 A2991 RMK A01 T03600155  RH  030%=      5-min Rain = 0
KES1 062106Z 14007KT 36/16 A2991 RMK A01 T03600156  RH  030%=      5-min Rain = 0
KES1 062107Z 14008KT 36/16 A2991 RMK A01 T03600157  RH  030%=      5-min Rain = 0
KES1 062108Z 15009KT 36/16 A2991 RMK A01 T03610156  RH  030%=      5-min Rain = 0
KES1 062109Z 15011KT 36/15 A2991 RMK A01 T03620154  RH  029%=      5-min Rain = 0
KES1 062110Z 16009KT 36/15 A2991 RMK A01 T03630145  RH  027%=      5-min Rain = 0
KES1 062111Z 15009KT 36/14 A2991 RMK A01 T03630139  RH  026%=      5-min Rain = 0
KES1 062112Z 17007KT 36/14 A2991 RMK A01 T03620138  RH  026%=      5-min Rain = 0
KES1 062113Z 17010KT 36/14 A2991 RMK A01 T03620139  RH  026%=      5-min Rain = 0
KES1 062114Z 16010KT 36/14 A2991 RMK A01 T03600140  RH  027%=      5-min Rain = 0
KES1 062115Z 16011KT 36/14 A2991 RMK A01 T03600141  RH  027%=      5-min Rain = 0
KES1 062116Z 17009KT 36/14 A299 RMK A01 T03600142  RH  027%=      5-min Rain = 0
KES1 062117Z 17009KT 36/14 A299 RMK A01 T03590143  RH  028%=      5-min Rain = 0
KES1 062118Z 17012G17KT 36/14 A299 RMK A01 T03590144  RH  028%=      5-min Rain = 0
KES1 062119Z 17011KT 36/14 A299 RMK A01 T03580143  RH  028%=      5-min Rain = 0
KES1 062120Z 15010KT 36/14 A299 RMK A01 T03580143  RH  028%=      5-min Rain = 0
KES1 062121Z 15009KT 36/14 A299 RMK A01 T03580144  RH  028%=      5-min Rain = 0
KES1 062122Z 15008KT 36/15 A299 RMK A01 T03580145  RH  028%=      5-min Rain = 0
KES1 062123Z 15011KT 36/15 A299 RMK A01 T03590146  RH  028%=      5-min Rain = 0
KES1 062124Z 16014KT 36/15 A299 RMK A01 T03590145  RH  028%=      5-min Rain = 0
KES1 062125Z 15010KT 36/15 A299 RMK A01 T03580145  RH  028%=      5-min Rain = 0
KES1 062126Z 16012KT 36/15 A2989 RMK A01 T03580146  RH  028%=      5-min Rain = 0
KES1 062127Z 15009KT 36/15 A2989 RMK A01 T03580145  RH  028%=      5-min Rain = 0
KES1 062128Z 15010KT 36/15 A2989 RMK A01 T03580147  RH  028%=      5-min Rain = 0
KES1 062129Z 16011KT 36/15 A2989 RMK A01 T03590148  RH  028%=      5-min Rain = 0
KES1 062130Z 15009KT 36/15 A2989 RMK A01 T03600149  RH  028%=      5-min Rain = 0
KES1 062131Z 15016KT 36/15 A2989 RMK A01 T03630151  RH  028%=      5-min Rain = 0
KES1 062132Z 14014KT 36/15 A2989 RMK A01 T03640152  RH  028%=      5-min Rain = 0
KES1 062133Z 15013KT 37/15 A2989 RMK A01 T03650152  RH  028%=      5-min Rain = 0
KES1 062134Z 13013KT 37/15 A2989 RMK A01 T03650153  RH  028%=      5-min Rain = 0
KES1 062135Z 15016G21KT 37/15 A2989 RMK A01 T03660152  RH  028%=      5-min Rain = 0
KES1 062136Z 15014G19KT 37/15 A2989 RMK A01 T03670152  RH  028%=      5-min Rain = 0
KES1 062137Z 15012KT 37/15 A2989 RMK A01 T03690152  RH  028%=      5-min Rain = 0
KES1 062138Z 14013KT 37/15 A2989 RMK A01 T03700153  RH  028%=      5-min Rain = 0
KES1 062139Z 15010KT 37/15 A2989 RMK A01 T03690151  RH  028%=      5-min Rain = 0
KES1 062140Z 16011KT 37/15 A2989 RMK A01 T03690152  RH  028%=      5-min Rain = 0
KES1 062141Z 16011KT 37/15 A2988 RMK A01 T03700149  RH  027%=      5-min Rain = 0
KES1 062142Z 14013KT 37/15 A2988 RMK A01 T03700149  RH  027%=      5-min Rain = 0
KES1 062143Z 16013KT 37/15 A2988 RMK A01 T03700147  RH  027%=      5-min Rain = 0
KES1 062144Z 16011KT 37/15 A2988 RMK A01 T03720149  RH  027%=      5-min Rain = 0
KES1 062145Z 16013G18KT 38/15 A2988 RMK A01 T03750145  RH  026%=      5-min Rain = 0
KES1 062146Z 16011KT 38/14 A2988 RMK A01 T03750141  RH  025%=      5-min Rain = 0
KES1 062147Z 17014KT 37/14 A2988 RMK A01 T03740138  RH  025%=      5-min Rain = 0
KES1 062148Z 15017KT 37/14 A2988 RMK A01 T03730137  RH  025%=      5-min Rain = 0
KES1 062149Z 15014KT 37/14 A2988 RMK A01 T03730136  RH  024%=      5-min Rain = 0
KES1 062150Z 15013KT 38/14 A2988 RMK A01 T03750136  RH  024%=      5-min Rain = 0
KES1 062151Z 15012KT 38/14 A2988 RMK A01 T03770137  RH  024%=      5-min Rain = 0
KES1 062152Z 16010KT 38/14 A2988 RMK A01 T03790138  RH  024%=      5-min Rain = 0
KES1 062153Z 15010G15KT 38/14 A2988 RMK A01 T03810140  RH  024%=      5-min Rain = 0
KES1 062154Z 15015KT 38/14 A2988 RMK A01 T03830139  RH  024%=      5-min Rain = 0
KES1 062155Z 16013G19KT 38/14 A2988 RMK A01 T03830138  RH  023%=      5-min Rain = 0
KES1 062156Z 16015G20KT 38/14 A2988 RMK A01 T03820136  RH  023%=      5-min Rain = 0
KES1 062157Z 16011G18KT 38/14 A2988 RMK A01 T03810136  RH  023%=      5-min Rain = 0
KES1 062158Z 16012G17KT 38/14 A2988 RMK A01 T03810136  RH  023%=      5-min Rain = 0
KES1 062159Z 16013KT 38/14 A2988 RMK A01 T03800136  RH  024%=      5-min Rain = 0
KES1 062200Z 16015KT 38/14 A2988 RMK A01 T03770137  RH  024%=      5-min Rain = 0
KES1 062201Z 17013G18KT 38/14 A2988 RMK A01 T03750138  RH  024%=      5-min Rain = 0
KES1 062202Z 17010KT 38/14 A2988 RMK A01 T03750139  RH  025%=      5-min Rain = 0
KES1 062203Z 15013G21KT 38/14 A2988 RMK A01 T03760141  RH  025%=      5-min Rain = 0
KES1 062204Z 16016KT 38/14 A2988 RMK A01 T03770140  RH  025%=      5-min Rain = 0
KES1 062205Z 17016G21KT 38/14 A2988 RMK A01 T03780141  RH  025%=      5-min Rain = 0
KES1 062206Z 17017KT 38/14 A2988 RMK A01 T03800139  RH  024%=      5-min Rain = 0
KES1 062207Z 18016KT 38/14 A2988 RMK A01 T03800137  RH  024%=      5-min Rain = 0
KES1 062208Z 18014G19KT 38/14 A2988 RMK A01 T03820140  RH  024%=      5-min Rain = 0
KES1 062209Z 16013G19KT 38/14 A2987 RMK A01 T03830141  RH  024%=      5-min Rain = 0
KES1 062210Z 15013KT 38/15 A2987 RMK A01 T03840146  RH  024%=      5-min Rain = 0
KES1 062211Z 16016KT 39/15 A2987 RMK A01 T03850147  RH  024%=      5-min Rain = 0
KES1 062212Z 16017KT 38/15 A2987 RMK A01 T03840145  RH  024%=      5-min Rain = 0
KES1 062213Z 16016KT 38/14 A2987 RMK A01 T03810144  RH  025%=      5-min Rain = 0
KES1 062214Z 15018KT 38/15 A2987 RMK A01 T03800146  RH  025%=      5-min Rain = 0
KES1 062215Z 15015G20KT 38/15 A2987 RMK A01 T03800146  RH  025%=      5-min Rain = 0
KES1 062216Z 16019KT 38/15 A2987 RMK A01 T03800145  RH  025%=      5-min Rain = 0
KES1 062217Z 16019KT 38/15 A2987 RMK A01 T03790146  RH  025%=      5-min Rain = 0
KES1 062218Z 16016KT 38/15 A2987 RMK A01 T03790147  RH  025%=      5-min Rain = 0
KES1 062219Z 15017G24KT 38/15 A2987 RMK A01 T03800147  RH  025%=      5-min Rain = 0
KES1 062220Z 15015G21KT 38/15 A2987 RMK A01 T03790147  RH  025%=      5-min Rain = 0
KES1 062221Z 14016G22KT 38/15 A2987 RMK A01 T03790148  RH  026%=      5-min Rain = 0
KES1 062222Z 15015KT 38/15 A2987 RMK A01 T03790149  RH  026%=      5-min Rain = 0
KES1 062223Z 15015G20KT 38/15 A2987 RMK A01 T03790150  RH  026%=      5-min Rain = 0
KES1 062224Z 15015KT 38/15 A2987 RMK A01 T03810152  RH  026%=      5-min Rain = 0
KES1 062225Z 16012G17KT 38/15 A2987 RMK A01 T03820152  RH  026%=      5-min Rain = 0
KES1 062226Z 17013KT 38/15 A2987 RMK A01 T03830153  RH  026%=      5-min Rain = 0
KES1 062227Z 16015KT 38/15 A2987 RMK A01 T03830153  RH  026%=      5-min Rain = 0
KES1 062228Z 15016G21KT 38/15 A2987 RMK A01 T03810151  RH  026%=      5-min Rain = 0
KES1 062229Z 15020KT 38/15 A2987 RMK A01 T03800151  RH  026%=      5-min Rain = 0
KES1 062230Z 15016KT 38/15 A2987 RMK A01 T03790152  RH  026%=      5-min Rain = 0
KES1 062231Z 16012G17KT 38/15 A2987 RMK A01 T03780152  RH  026%=      5-min Rain = 0
KES1 062232Z 16012G17KT 38/15 A2987 RMK A01 T03780152  RH  026%=      5-min Rain = 0
KES1 062233Z 15017G22KT 38/15 A2987 RMK A01 T03770152  RH  027%=      5-min Rain = 0
KES1 062234Z 16017KT 38/15 A2987 RMK A01 T03750151  RH  027%=      5-min Rain = 0
KES1 062235Z 16018G23KT 37/15 A2987 RMK A01 T03740151  RH  027%=      5-min Rain = 0
KES1 062236Z 15015KT 37/15 A2987 RMK A01 T03740150  RH  027%=      5-min Rain = 0
KES1 062237Z 16014G19KT 37/15 A2987 RMK A01 T03740151  RH  027%=      5-min Rain = 0
KES1 062238Z 16018KT 38/15 A2987 RMK A01 T03750150  RH  026%=      5-min Rain = 0
KES1 062239Z 15016KT 37/15 A2987 RMK A01 T03730150  RH  027%=      5-min Rain = 0
KES1 062240Z 16017KT 37/15 A2987 RMK A01 T03740151  RH  027%=      5-min Rain = 0
KES1 062241Z 16017KT 38/15 A2987 RMK A01 T03750150  RH  026%=      5-min Rain = 0
KES1 062242Z 15016G21KT 38/15 A2987 RMK A01 T03760150  RH  026%=      5-min Rain = 0
KES1 062243Z 14020KT 38/15 A2987 RMK A01 T03760149  RH  026%=      5-min Rain = 0
KES1 062244Z 14013KT 38/15 A2987 RMK A01 T03750149  RH  026%=      5-min Rain = 0
KES1 062245Z 15015KT 38/15 A2986 RMK A01 T03760150  RH  026%=      5-min Rain = 0
KES1 062246Z 15016G21KT 38/15 A2986 RMK A01 T03780150  RH  026%=      5-min Rain = 0
KES1 062247Z 15018G23KT 38/15 A2986 RMK A01 T03800150  RH  026%=      5-min Rain = 0
KES1 062248Z 15018G24KT 38/15 A2986 RMK A01 T03790149  RH  026%=      5-min Rain = 0
KES1 062249Z 15016KT 38/15 A2986 RMK A01 T03780149  RH  026%=      5-min Rain = 0
KES1 062250Z 15017G22KT 38/15 A2986 RMK A01 T03780149  RH  026%=      5-min Rain = 0
KES1 062251Z 16017KT 38/15 A2986 RMK A01 T03780148  RH  026%=      5-min Rain = 0
KES1 062252Z 16020G26KT 38/15 A2986 RMK A01 T03790149  RH  026%=      5-min Rain = 0
KES1 062253Z 15018KT 38/15 A2986 RMK A01 T03800149  RH  026%=      5-min Rain = 0
KES1 062254Z 15016KT 38/15 A2986 RMK A01 T03780148  RH  026%=      5-min Rain = 0
KES1 062255Z 14018KT 38/15 A2986 RMK A01 T03780149  RH  026%=      5-min Rain = 0
KES1 062256Z 15021KT 38/15 A2986 RMK A01 T03780149  RH  026%=      5-min Rain = 0
KES1 062257Z 16014KT 38/15 A2986 RMK A01 T03770149  RH  026%=      5-min Rain = 0
KES1 062258Z 16017KT 38/15 A2986 RMK A01 T03770149  RH  026%=      5-min Rain = 0
KES1 062259Z 16018G23KT 38/15 A2986 RMK A01 T03780149  RH  026%=      5-min Rain = 0
KES1 062300Z 16019KT 38/15 A2986 RMK A01 T03780149  RH  026%=      5-min Rain = 0
KES1 062301Z 15020KT 38/15 A2986 RMK A01 T03760148  RH  026%=      5-min Rain = 0
KES1 062302Z 15019KT 38/15 A2986 RMK A01 T03750149  RH  026%=      5-min Rain = 0
KES1 062303Z 15017KT 37/15 A2986 RMK A01 T03740149  RH  026%=      5-min Rain = 0
KES1 062304Z 15016G22KT 38/15 A2986 RMK A01 T03750150  RH  026%=      5-min Rain = 0
KES1 062305Z 15019G24KT 38/15 A2986 RMK A01 T03760150  RH  026%=      5-min Rain = 0
KES1 062306Z 15016G22KT 38/15 A2986 RMK A01 T03750151  RH  027%=      5-min Rain = 0
KES1 062307Z 14013KT 38/15 A2986 RMK A01 T03760151  RH  027%=      5-min Rain = 0
KES1 062308Z 15012G17KT 38/15 A2986 RMK A01 T03770152  RH  026%=      5-min Rain = 0
KES1 062309Z 15018G23KT 38/15 A2986 RMK A01 T03790153  RH  026%=      5-min Rain = 0
KES1 062310Z 15015G21KT 38/15 A2986 RMK A01 T03790152  RH  026%=      5-min Rain = 0
KES1 062311Z 17012KT 38/15 A2986 RMK A01 T03770152  RH  026%=      5-min Rain = 0
KES1 062312Z 16018G24KT 38/15 A2986 RMK A01 T03780153  RH  027%=      5-min Rain = 0
KES1 062313Z 16016KT 38/15 A2986 RMK A01 T03780153  RH  026%=      5-min Rain = 0
KES1 062314Z 15016G22KT 38/15 A2986 RMK A01 T03770153  RH  027%=      5-min Rain = 0
KES1 062315Z 15018G23KT 38/15 A2986 RMK A01 T03770154  RH  027%=      5-min Rain = 0
KES1 062316Z 16018KT 38/15 A2986 RMK A01 T03770154  RH  027%=      5-min Rain = 0
KES1 062317Z 15020KT 38/15 A2986 RMK A01 T03750153  RH  027%=      5-min Rain = 0
KES1 062318Z 15014KT 37/15 A2986 RMK A01 T03740154  RH  027%=      5-min Rain = 0
KES1 062319Z 15018KT 38/15 A2986 RMK A01 T03750154  RH  027%=      5-min Rain = 0
KES1 062320Z 15016KT 38/15 A2986 RMK A01 T03750153  RH  027%=      5-min Rain = 0
KES1 062321Z 15013KT 38/15 A2986 RMK A01 T03750154  RH  027%=      5-min Rain = 0
KES1 062322Z 15014KT 38/15 A2986 RMK A01 T03770154  RH  027%=      5-min Rain = 0
KES1 062323Z 15014G22KT 38/16 A2986 RMK A01 T03780155  RH  027%=      5-min Rain = 0
KES1 062324Z 15015G21KT 38/16 A2986 RMK A01 T03790156  RH  027%=      5-min Rain = 0
KES1 062325Z 15018KT 38/16 A2986 RMK A01 T03790157  RH  027%=      5-min Rain = 0
KES1 062326Z 15015KT 38/16 A2986 RMK A01 T03770157  RH  027%=      5-min Rain = 0
KES1 062327Z 15017KT 38/16 A2986 RMK A01 T03760156  RH  027%=      5-min Rain = 0
KES1 062328Z 16015G20KT 37/16 A2986 RMK A01 T03740156  RH  027%=      5-min Rain = 0
KES1 062329Z 15011KT 37/16 A2986 RMK A01 T03740157  RH  028%=      5-min Rain = 0
KES1 062330Z 16016KT 38/16 A2986 RMK A01 T03750157  RH  028%=      5-min Rain = 0
KES1 062331Z 16016KT 38/16 A2986 RMK A01 T03760158  RH  028%=      5-min Rain = 0
KES1 062332Z 16015KT 38/16 A2986 RMK A01 T03750158  RH  028%=      5-min Rain = 0
KES1 062333Z 16014KT 38/16 A2986 RMK A01 T03750158  RH  028%=      5-min Rain = 0
KES1 062334Z 16011KT 38/16 A2986 RMK A01 T03770160  RH  028%=      5-min Rain = 0
KES1 062335Z 16017G25KT 38/16 A2986 RMK A01 T03780160  RH  028%=      5-min Rain = 0
KES1 062336Z 16018G24KT 38/16 A2985 RMK A01 T03770159  RH  028%=      5-min Rain = 0
KES1 062337Z 16014G20KT 37/16 A2985 RMK A01 T03740159  RH  028%=      5-min Rain = 0
KES1 062338Z 15011KT 37/16 A2985 RMK A01 T03740160  RH  028%=      5-min Rain = 0
KES1 062339Z 16013KT 38/16 A2985 RMK A01 T03750160  RH  028%=      5-min Rain = 0
KES1 062340Z 15011G16KT 38/16 A2985 RMK A01 T03760161  RH  028%=      5-min Rain = 0
KES1 062341Z 14013KT 38/16 A2985 RMK A01 T03760162  RH  028%=      5-min Rain = 0
KES1 062342Z 15013KT 38/16 A2985 RMK A01 T03760162  RH  028%=      5-min Rain = 0
KES1 062343Z 15017G22KT 38/16 A2985 RMK A01 T03770162  RH  028%=      5-min Rain = 0
KES1 062344Z 16015G20KT 38/16 A2985 RMK A01 T03760162  RH  028%=      5-min Rain = 0
KES1 062345Z 16013KT 37/16 A2985 RMK A01 T03740162  RH  029%=      5-min Rain = 0
KES1 062346Z 15011G19KT 37/16 A2985 RMK A01 T03740162  RH  029%=      5-min Rain = 0
KES1 062347Z 14018G23KT 37/16 A2985 RMK A01 T03740162  RH  029%=      5-min Rain = 0
KES1 062348Z 15016G21KT 37/16 A2985 RMK A01 T03730163  RH  029%=      5-min Rain = 0
KES1 062349Z 15016KT 37/16 A2985 RMK A01 T03720163  RH  029%=      5-min Rain = 0
KES1 062350Z 15013KT 37/16 A2985 RMK A01 T03710163  RH  029%=      5-min Rain = 0
KES1 062351Z 16012G17KT 37/16 A2985 RMK A01 T03700164  RH  030%=      5-min Rain = 0
KES1 062352Z 15013KT 37/16 A2985 RMK A01 T03700163  RH  029%=      5-min Rain = 0
KES1 062353Z 16017KT 37/16 A2985 RMK A01 T03710161  RH  029%=      5-min Rain = 0
KES1 062354Z 16018KT 37/16 A2985 RMK A01 T03700161  RH  029%=      5-min Rain = 0
KES1 062355Z 15013KT 37/16 A2985 RMK A01 T03690162  RH  029%=      5-min Rain = 0
KES1 062356Z 16012G17KT 37/16 A2985 RMK A01 T03690162  RH  030%=      5-min Rain = 0
KES1 062357Z 16017KT 37/16 A2985 RMK A01 T03680161  RH  029%=      5-min Rain = 0
KES1 062358Z 16018KT 37/16 A2985 RMK A01 T03690161  RH  029%=      5-min Rain = 0
KES1 062359Z 16015KT 37/16 A2985 RMK A01 T03680161  RH  029%=      5-min Rain = 0
KES1 070000Z 16015KT 37/16 A2985 RMK A01 T03670161  RH  030%=      5-min Rain = 0
KES1 070001Z 16016G21KT 37/16 A2985 RMK A01 T03670161  RH  030%=      5-min Rain = 0
KES1 070002Z 15018KT 37/16 A2985 RMK A01 T03670160  RH  029%=      5-min Rain = 0
KES1 070003Z 16015G20KT 37/16 A2985 RMK A01 T03660159  RH  030%=      5-min Rain = 0
KES1 070004Z 15016G22KT 37/16 A2984 RMK A01 T03650160  RH  030%=      5-min Rain = 0
KES1 070005Z 16017KT 36/16 A2984 RMK A01 T03640160  RH  030%=      5-min Rain = 0
KES1 070006Z 16015G22KT 36/16 A2984 RMK A01 T03640161  RH  030%=      5-min Rain = 0
KES1 070007Z 16014KT 36/16 A2984 RMK A01 T03630161  RH  030%=      5-min Rain = 0
KES1 070008Z 16011KT 36/16 A2984 RMK A01 T03630162  RH  030%=      5-min Rain = 0
KES1 070009Z 16015G22KT 36/16 A2984 RMK A01 T03630162  RH  030%=      5-min Rain = 0
KES1 070010Z 16017G22KT 36/16 A2984 RMK A01 T03630162  RH  030%=      5-min Rain = 0
KES1 070011Z 16015G20KT 36/16 A2984 RMK A01 T03630162  RH  030%=      5-min Rain = 0
KES1 070012Z 16017G23KT 36/16 A2984 RMK A01 T03630162  RH  031%=      5-min Rain = 0
KES1 070013Z 16016KT 36/16 A2984 RMK A01 T03630163  RH  031%=      5-min Rain = 0
KES1 070014Z 16013KT 36/16 A2985 RMK A01 T03620163  RH  031%=      5-min Rain = 0
KES1 070015Z 16011G16KT 36/16 A2985 RMK A01 T03620163  RH  031%=      5-min Rain = 0
KES1 070016Z 16013G19KT 36/16 A2985 RMK A01 T03620164  RH  031%=      5-min Rain = 0
KES1 070017Z 15009G16KT 36/17 A2985 RMK A01 T03620165  RH  031%=      5-min Rain = 0
KES1 070018Z 15014KT 36/17 A2985 RMK A01 T03620165  RH  031%=      5-min Rain = 0
KES1 070019Z 15013KT 36/17 A2985 RMK A01 T03610165  RH  031%=      5-min Rain = 0
KES1 070020Z 15014G19KT 36/17 A2985 RMK A01 T03610166  RH  031%=      5-min Rain = 0
KES1 070021Z 16014G19KT 36/17 A2985 RMK A01 T03610165  RH  031%=      5-min Rain = 0
KES1 070022Z 16012G18KT 36/17 A2985 RMK A01 T03610165  RH  031%=      5-min Rain = 0
KES1 070023Z 15014KT 36/17 A2985 RMK A01 T03610165  RH  032%=      5-min Rain = 0
KES1 070024Z 16016G22KT 36/17 A2985 RMK A01 T03610165  RH  032%=      5-min Rain = 0
KES1 070025Z 16018G23KT 36/17 A2985 RMK A01 T03600165  RH  031%=      5-min Rain = 0
KES1 070026Z 16016G21KT 36/17 A2985 RMK A01 T03600165  RH  032%=      5-min Rain = 0
KES1 070027Z 16015G21KT 36/17 A2985 RMK A01 T03600165  RH  032%=      5-min Rain = 0
KES1 070028Z 16015G21KT 36/17 A2985 RMK A01 T03600165  RH  031%=      5-min Rain = 0
KES1 070029Z 16015KT 36/17 A2985 RMK A01 T03600165  RH  031%=      5-min Rain = 0
KES1 070030Z 16015KT 36/16 A2985 RMK A01 T03590164  RH  031%=      5-min Rain = 0
KES1 070031Z 16015KT 36/16 A2985 RMK A01 T03600164  RH  032%=      5-min Rain = 0
KES1 070032Z 15015KT 36/16 A2985 RMK A01 T03590164  RH  032%=      5-min Rain = 0
KES1 070033Z 15014KT 36/17 A2985 RMK A01 T03590165  RH  032%=      5-min Rain = 0
KES1 070034Z 15012KT 36/17 A2985 RMK A01 T03580165  RH  032%=      5-min Rain = 0
KES1 070035Z 15012KT 36/17 A2985 RMK A01 T03580165  RH  032%=      5-min Rain = 0
KES1 070036Z 16013KT 36/17 A2985 RMK A01 T03580165  RH  032%=      5-min Rain = 0
KES1 070037Z 16015G20KT 36/17 A2985 RMK A01 T03580165  RH  032%=      5-min Rain = 0
KES1 070038Z 15017KT 36/17 A2985 RMK A01 T03570165  RH  032%=      5-min Rain = 0
KES1 070039Z 15016KT 36/17 A2985 RMK A01 T03570166  RH  032%=      5-min Rain = 0
KES1 070040Z 15015G20KT 36/17 A2985 RMK A01 T03570166  RH  032%=      5-min Rain = 0
KES1 070041Z 15012KT 36/17 A2985 RMK A01 T03570166  RH  032%=      5-min Rain = 0
KES1 070042Z 15011KT 36/17 A2985 RMK A01 T03560167  RH  033%=      5-min Rain = 0
KES1 070043Z 15011G16KT 36/17 A2985 RMK A01 T03560167  RH  033%=      5-min Rain = 0
KES1 070044Z 15015G20KT 36/17 A2985 RMK A01 T03560167  RH  033%=      5-min Rain = 0
KES1 070045Z 15012KT 36/17 A2985 RMK A01 T03560167  RH  033%=      5-min Rain = 0
KES1 070046Z 16014KT 36/17 A2985 RMK A01 T03560168  RH  033%=      5-min Rain = 0
KES1 070047Z 15013KT 36/17 A2985 RMK A01 T03560167  RH  033%=      5-min Rain = 0
KES1 070048Z 14012KT 36/17 A2985 RMK A01 T03550167  RH  033%=      5-min Rain = 0
KES1 070049Z 15012KT 36/17 A2985 RMK A01 T03550167  RH  033%=      5-min Rain = 0
KES1 070050Z 16014KT 36/17 A2985 RMK A01 T03550167  RH  033%=      5-min Rain = 0
KES1 070051Z 15012G18KT 36/17 A2985 RMK A01 T03550167  RH  033%=      5-min Rain = 0
KES1 070052Z 15014G19KT 36/17 A2985 RMK A01 T03550167  RH  033%=      5-min Rain = 0
KES1 070053Z 15014KT 36/17 A2985 RMK A01 T03550167  RH  033%=      5-min Rain = 0
KES1 070054Z 14011KT 36/17 A2985 RMK A01 T03550167  RH  033%=      5-min Rain = 0
KES1 070055Z 15013KT 36/17 A2985 RMK A01 T03550167  RH  033%=      5-min Rain = 0
KES1 070056Z 15013G20KT 35/17 A2985 RMK A01 T03540166  RH  033%=      5-min Rain = 0
KES1 070057Z 15015KT 35/17 A2985 RMK A01 T03540166  RH  033%=      5-min Rain = 0
KES1 070058Z 15012KT 35/17 A2985 RMK A01 T03540166  RH  033%=      5-min Rain = 0
KES1 070059Z 15012KT 35/17 A2985 RMK A01 T03540166  RH  033%=      5-min Rain = 0
KES1 070100Z 14011KT 35/17 A2985 RMK A01 T03540166  RH  033%=      5-min Rain = 0
KES1 070101Z 15010KT 35/17 A2986 RMK A01 T03540166  RH  033%=      5-min Rain = 0
KES1 070102Z 14012KT 35/17 A2986 RMK A01 T03540166  RH  033%=      5-min Rain = 0
KES1 070103Z 15012KT 35/17 A2986 RMK A01 T03530166  RH  033%=      5-min Rain = 0
KES1 070104Z 15009G14KT 35/17 A2986 RMK A01 T03530166  RH  033%=      5-min Rain = 0
KES1 070105Z 15012G17KT 35/17 A2986 RMK A01 T03530166  RH  033%=      5-min Rain = 0
KES1 070106Z 15013KT 35/17 A2986 RMK A01 T03530166  RH  033%=      5-min Rain = 0
KES1 070107Z 15013KT 35/17 A2986 RMK A01 T03530165  RH  033%=      5-min Rain = 0
KES1 070108Z 15013G18KT 35/17 A2986 RMK A01 T03530165  RH  033%=      5-min Rain = 0
KES1 070109Z 15013KT 35/17 A2986 RMK A01 T03530165  RH  033%=      5-min Rain = 0
KES1 070110Z 15011KT 35/16 A2986 RMK A01 T03530164  RH  033%=      5-min Rain = 0
KES1 070111Z 15013KT 35/16 A2986 RMK A01 T03530164  RH  033%=      5-min Rain = 0
KES1 070112Z 15012KT 35/16 A2986 RMK A01 T03530164  RH  033%=      5-min Rain = 0
KES1 070113Z 15011KT 35/16 A2986 RMK A01 T03530164  RH  033%=      5-min Rain = 0
KES1 070114Z 14010KT 35/17 A2986 RMK A01 T03530165  RH  033%=      5-min Rain = 0
KES1 070115Z 15011KT 35/17 A2986 RMK A01 T03530165  RH  033%=      5-min Rain = 0
KES1 070116Z 15011KT 35/17 A2986 RMK A01 T03520165  RH  033%=      5-min Rain = 0
KES1 070117Z 15015KT 35/17 A2986 RMK A01 T03520165  RH  033%=      5-min Rain = 0
KES1 070118Z 15011KT 35/16 A2986 RMK A01 T03520164  RH  033%=      5-min Rain = 0
KES1 070119Z 15012KT 35/17 A2986 RMK A01 T03520165  RH  033%=      5-min Rain = 0
KES1 070120Z 15010KT 35/17 A2986 RMK A01 T03520165  RH  033%=      5-min Rain = 0
KES1 070121Z 15013KT 35/17 A2987 RMK A01 T03510165  RH  033%=      5-min Rain = 0
KES1 070122Z 15013KT 35/17 A2986 RMK A01 T03510165  RH  033%=      5-min Rain = 0
KES1 070123Z 15014KT 35/17 A2986 RMK A01 T03510165  RH  033%=      5-min Rain = 0
KES1 070124Z 15013KT 35/16 A2987 RMK A01 T03510164  RH  033%=      5-min Rain = 0
KES1 070125Z 15013KT 35/16 A2987 RMK A01 T03510164  RH  033%=      5-min Rain = 0
KES1 070126Z 15015KT 35/17 A2986 RMK A01 T03510165  RH  033%=      5-min Rain = 0
KES1 070127Z 15011KT 35/17 A2987 RMK A01 T03510165  RH  033%=      5-min Rain = 0
KES1 070128Z 15011KT 35/16 A2987 RMK A01 T03500164  RH  033%=      5-min Rain = 0
KES1 070129Z 14012KT 35/17 A2987 RMK A01 T03500165  RH  033%=      5-min Rain = 0
KES1 070130Z 15011KT 35/17 A2987 RMK A01 T03490165  RH  033%=      5-min Rain = 0
KES1 070131Z 15016KT 35/17 A2987 RMK A01 T03490165  RH  033%=      5-min Rain = 0
KES1 070132Z 15013KT 35/16 A2987 RMK A01 T03490164  RH  033%=      5-min Rain = 0
KES1 070133Z 15015KT 35/16 A2987 RMK A01 T03490164  RH  033%=      5-min Rain = 0
KES1 070134Z 15014KT 35/16 A2987 RMK A01 T03500164  RH  033%=      5-min Rain = 0
KES1 070135Z 15013KT 35/16 A2987 RMK A01 T03500164  RH  033%=      5-min Rain = 0
KES1 070136Z 14014KT 35/16 A2987 RMK A01 T03500164  RH  033%=      5-min Rain = 0
KES1 070137Z 14015G20KT 35/16 A2987 RMK A01 T03490164  RH  033%=      5-min Rain = 0
KES1 070138Z 14012KT 35/16 A2987 RMK A01 T03490164  RH  033%=      5-min Rain = 0
KES1 070139Z 14011KT 35/16 A2987 RMK A01 T03490164  RH  033%=      5-min Rain = 0
KES1 070140Z 15010KT 35/16 A2987 RMK A01 T03490164  RH  033%=      5-min Rain = 0
KES1 070141Z 14011KT 35/16 A2987 RMK A01 T03480164  RH  033%=      5-min Rain = 0
KES1 070142Z 15011KT 35/16 A2987 RMK A01 T03480164  RH  034%=      5-min Rain = 0
KES1 070143Z 14010KT 35/16 A2987 RMK A01 T03470164  RH  034%=      5-min Rain = 0
KES1 070144Z 14011KT 35/16 A2987 RMK A01 T03470164  RH  034%=      5-min Rain = 0
KES1 070145Z 15016KT 35/16 A2987 RMK A01 T03470164  RH  034%=      5-min Rain = 0
KES1 070146Z 15011KT 35/16 A2987 RMK A01 T03470164  RH  034%=      5-min Rain = 0
KES1 070147Z 15012KT 35/17 A2987 RMK A01 T03470165  RH  034%=      5-min Rain = 0
KES1 070148Z 15013G19KT 35/17 A2987 RMK A01 T03460165  RH  034%=      5-min Rain = 0
KES1 070149Z 15013KT 35/17 A2987 RMK A01 T03460165  RH  034%=      5-min Rain = 0
KES1 070150Z 14011KT 35/17 A2987 RMK A01 T03460165  RH  034%=      5-min Rain = 0
KES1 070151Z 15010KT 35/17 A2987 RMK A01 T03460165  RH  034%=      5-min Rain = 0
KES1 070152Z 15012KT 35/17 A2987 RMK A01 T03450165  RH  034%=      5-min Rain = 0
KES1 070153Z 14012KT 35/17 A2987 RMK A01 T03450166  RH  034%=      5-min Rain = 0
KES1 070154Z 14011KT 35/17 A2987 RMK A01 T03450166  RH  034%=      5-min Rain = 0
KES1 070155Z 14009KT 34/17 A2988 RMK A01 T03440166  RH  035%=      5-min Rain = 0
KES1 070156Z 15008G13KT 34/17 A2988 RMK A01 T03430166  RH  035%=      5-min Rain = 0
KES1 070157Z 15012KT 34/17 A2988 RMK A01 T03430166  RH  035%=      5-min Rain = 0
KES1 070158Z 15013KT 34/17 A2988 RMK A01 T03430166  RH  035%=      5-min Rain = 0
KES1 070159Z 14010KT 34/17 A2988 RMK A01 T03420166  RH  035%=      5-min Rain = 0
KES1 070200Z 15009KT 34/17 A2988 RMK A01 T03420166  RH  035%=      5-min Rain = 0
KES1 070201Z 14013KT 34/17 A2988 RMK A01 T03420167  RH  035%=      5-min Rain = 0
KES1 070202Z 15011KT 34/17 A2988 RMK A01 T03420167  RH  035%=      5-min Rain = 0
KES1 070203Z 15012KT 34/17 A2988 RMK A01 T03420167  RH  035%=      5-min Rain = 0
KES1 070204Z 15011KT 34/17 A2988 RMK A01 T03420168  RH  036%=      5-min Rain = 0
KES1 070205Z 15011G18KT 34/17 A2988 RMK A01 T03410168  RH  036%=      5-min Rain = 0
KES1 070206Z 15011KT 34/17 A2988 RMK A01 T03410168  RH  036%=      5-min Rain = 0
KES1 070207Z 16011KT 34/17 A2988 RMK A01 T03410168  RH  036%=      5-min Rain = 0
KES1 070208Z 15011KT 34/17 A2988 RMK A01 T03410168  RH  036%=      5-min Rain = 0
KES1 070209Z 15013KT 34/17 A2988 RMK A01 T03400168  RH  036%=      5-min Rain = 0
KES1 070210Z 16011KT 34/17 A2988 RMK A01 T03400168  RH  036%=      5-min Rain = 0
KES1 070211Z 16010KT 34/17 A2988 RMK A01 T03400168  RH  036%=      5-min Rain = 0
KES1 070212Z 15011KT 34/17 A2988 RMK A01 T03400169  RH  036%=      5-min Rain = 0
KES1 070213Z 16012G17KT 34/17 A2988 RMK A01 T03400168  RH  036%=      5-min Rain = 0
KES1 070214Z 16013KT 34/17 A2988 RMK A01 T03400168  RH  036%=      5-min Rain = 0
KES1 070215Z 16013KT 34/17 A2988 RMK A01 T03400168  RH  036%=      5-min Rain = 0
KES1 070216Z 15013KT 34/17 A2987 RMK A01 T03400169  RH  036%=      5-min Rain = 0
KES1 070217Z 16014KT 34/17 A2988 RMK A01 T03400168  RH  036%=      5-min Rain = 0
KES1 070218Z 15010KT 34/17 A2988 RMK A01 T03400168  RH  036%=      5-min Rain = 0
KES1 070219Z 16012KT 34/17 A2988 RMK A01 T03400169  RH  036%=      5-min Rain = 0
KES1 070220Z 16011KT 34/17 A2988 RMK A01 T03400169  RH  036%=      5-min Rain = 0
KES1 070221Z 16012G17KT 34/17 A2988 RMK A01 T03400169  RH  036%=      5-min Rain = 0
KES1 070222Z 15012KT 34/17 A2988 RMK A01 T03390169  RH  036%=      5-min Rain = 0
KES1 070223Z 16011KT 34/17 A2988 RMK A01 T03390169  RH  036%=      5-min Rain = 0
KES1 070224Z 16014G19KT 34/17 A2987 RMK A01 T03390169  RH  036%=      5-min Rain = 0
KES1 070225Z 16014KT 34/17 A2987 RMK A01 T03390168  RH  036%=      5-min Rain = 0
KES1 070226Z 16012G17KT 34/17 A2987 RMK A01 T03390169  RH  036%=      5-min Rain = 0
KES1 070227Z 16015KT 34/17 A2987 RMK A01 T03390169  RH  036%=      5-min Rain = 0
KES1 070228Z 16013KT 34/17 A2987 RMK A01 T03390169  RH  036%=      5-min Rain = 0
KES1 070229Z 16012KT 34/17 A2987 RMK A01 T03390169  RH  036%=      5-min Rain = 0
KES1 070230Z 16013G18KT 34/17 A2987 RMK A01 T03390169  RH  036%=      5-min Rain = 0
KES1 070231Z 16012KT 34/17 A2987 RMK A01 T03380169  RH  036%=      5-min Rain = 0
KES1 070232Z 16013KT 34/17 A2987 RMK A01 T03380169  RH  036%=      5-min Rain = 0
KES1 070233Z 16012KT 34/17 A2987 RMK A01 T03380169  RH  037%=      5-min Rain = 0
KES1 070234Z 16014KT 34/17 A2987 RMK A01 T03380169  RH  037%=      5-min Rain = 0
KES1 070235Z 16012KT 34/17 A2987 RMK A01 T03380169  RH  037%=      5-min Rain = 0
KES1 070236Z 16010KT 34/17 A2987 RMK A01 T03380169  RH  037%=      5-min Rain = 0
KES1 070237Z 16010KT 34/17 A2987 RMK A01 T03370169  RH  037%=      5-min Rain = 0
KES1 070238Z 16012G18KT 34/17 A2987 RMK A01 T03370169  RH  037%=      5-min Rain = 0
KES1 070239Z 16013KT 34/17 A2987 RMK A01 T03370169  RH  037%=      5-min Rain = 0
KES1 070240Z 16013G18KT 34/17 A2987 RMK A01 T03370169  RH  037%=      5-min Rain = 0
KES1 070241Z 16014KT 34/17 A2987 RMK A01 T03370169  RH  037%=      5-min Rain = 0
KES1 070242Z 16013KT 34/17 A2987 RMK A01 T03370168  RH  037%=      5-min Rain = 0
KES1 070243Z 16014KT 34/17 A2987 RMK A01 T03370168  RH  037%=      5-min Rain = 0
KES1 070244Z 16012KT 34/17 A2987 RMK A01 T03370169  RH  037%=      5-min Rain = 0
KES1 070245Z 16013KT 34/17 A2987 RMK A01 T03370169  RH  037%=      5-min Rain = 0
KES1 070246Z 16012G17KT 34/17 A2987 RMK A01 T03370168  RH  037%=      5-min Rain = 0
KES1 070247Z 16013KT 34/17 A2987 RMK A01 T03360168  RH  037%=      5-min Rain = 0
KES1 070248Z 16013G18KT 34/17 A2987 RMK A01 T03370169  RH  037%=      5-min Rain = 0
KES1 070249Z 16013KT 34/17 A2987 RMK A01 T03360168  RH  037%=      5-min Rain = 0
KES1 070250Z 16011KT 34/17 A2987 RMK A01 T03360168  RH  037%=      5-min Rain = 0
KES1 070251Z 15012KT 34/17 A2987 RMK A01 T03360168  RH  037%=      5-min Rain = 0
KES1 070252Z 16013KT 34/17 A2987 RMK A01 T03360168  RH  037%=      5-min Rain = 0
KES1 070253Z 16013KT 34/17 A2987 RMK A01 T03360169  RH  037%=      5-min Rain = 0
KES1 070254Z 15014KT 34/17 A2987 RMK A01 T03350168  RH  037%=      5-min Rain = 0
KES1 070255Z 16013KT 34/17 A2987 RMK A01 T03350168  RH  037%=      5-min Rain = 0
KES1 070256Z 16014KT 34/17 A2987 RMK A01 T03350168  RH  037%=      5-min Rain = 0
KES1 070257Z 16014G19KT 34/17 A2987 RMK A01 T03350167  RH  037%=      5-min Rain = 0
KES1 070258Z 16013KT 34/17 A2987 RMK A01 T03350168  RH  037%=      5-min Rain = 0
KES1 070259Z 16013KT 34/17 A2987 RMK A01 T03350168  RH  037%=      5-min Rain = 0
KES1 070300Z 16015KT 34/17 A2987 RMK A01 T03350167  RH  037%=      5-min Rain = 0
KES1 070301Z 16015KT 34/17 A2987 RMK A01 T03350167  RH  037%=      5-min Rain = 0
KES1 070302Z 16013KT 34/17 A2987 RMK A01 T03350167  RH  037%=      5-min Rain = 0
KES1 070303Z 16013KT 34/17 A2987 RMK A01 T03350167  RH  037%=      5-min Rain = 0
KES1 070304Z 16011G17KT 34/17 A2987 RMK A01 T03350167  RH  037%=      5-min Rain = 0
KES1 070305Z 16013KT 33/17 A2987 RMK A01 T03340167  RH  037%=      5-min Rain = 0
KES1 070306Z 16016KT 33/17 A2987 RMK A01 T03340167  RH  037%=      5-min Rain = 0
KES1 070307Z 17014KT 33/17 A2987 RMK A01 T03340167  RH  037%=      5-min Rain = 0
KES1 070308Z 16012G17KT 34/17 A2987 RMK A01 T03350167  RH  037%=      5-min Rain = 0
KES1 070309Z 16013KT 34/17 A2987 RMK A01 T03350167  RH  037%=      5-min Rain = 0
KES1 070310Z 17011KT 34/17 A2987 RMK A01 T03350167  RH  037%=      5-min Rain = 0
KES1 070311Z 17014KT 33/17 A2987 RMK A01 T03340167  RH  037%=      5-min Rain = 0
KES1 070312Z 17012G17KT 33/17 A2987 RMK A01 T03340167  RH  037%=      5-min Rain = 0
KES1 070313Z 17012KT 33/17 A2987 RMK A01 T03340167  RH  037%=      5-min Rain = 0
KES1 070314Z 16011KT 33/17 A2987 RMK A01 T03340167  RH  037%=      5-min Rain = 0
KES1 070315Z 16012G17KT 33/17 A2987 RMK A01 T03340166  RH  037%=      5-min Rain = 0
KES1 070316Z 16013KT 33/17 A2987 RMK A01 T03340166  RH  037%=      5-min Rain = 0
KES1 070317Z 17013G18KT 33/17 A2987 RMK A01 T03340167  RH  037%=      5-min Rain = 0
KES1 070318Z 17011KT 33/17 A2987 RMK A01 T03340166  RH  037%=      5-min Rain = 0
KES1 070319Z 16013G19KT 33/17 A2987 RMK A01 T03340166  RH  037%=      5-min Rain = 0
KES1 070320Z 17012KT 33/17 A2987 RMK A01 T03340166  RH  037%=      5-min Rain = 0
KES1 070321Z 17011G17KT 33/17 A2987 RMK A01 T03340166  RH  037%=      5-min Rain = 0
KES1 070322Z 17010G15KT 33/17 A2987 RMK A01 T03330166  RH  037%=      5-min Rain = 0
KES1 070323Z 17012G17KT 33/17 A2987 RMK A01 T03340166  RH  037%=      5-min Rain = 0
KES1 070324Z 17011KT 33/17 A2987 RMK A01 T03330165  RH  037%=      5-min Rain = 0
KES1 070325Z 17013G18KT 33/17 A2987 RMK A01 T03330165  RH  037%=      5-min Rain = 0
KES1 070326Z 17012G17KT 33/17 A2987 RMK A01 T03330165  RH  037%=      5-min Rain = 0
KES1 070327Z 17013KT 33/17 A2987 RMK A01 T03330165  RH  037%=      5-min Rain = 0
KES1 070328Z 17011G17KT 33/17 A2987 RMK A01 T03330165  RH  037%=      5-min Rain = 0
KES1 070329Z 17011KT 33/17 A2987 RMK A01 T03330165  RH  037%=      5-min Rain = 0
KES1 070330Z 17012KT 33/17 A2987 RMK A01 T03330166  RH  037%=      5-min Rain = 0
KES1 070331Z 16012G18KT 33/17 A2987 RMK A01 T03320165  RH  037%=      5-min Rain = 0
KES1 070332Z 17012KT 33/17 A2987 RMK A01 T03320165  RH  037%=      5-min Rain = 0
KES1 070333Z 17011G16KT 33/17 A2987 RMK A01 T03320165  RH  037%=      5-min Rain = 0
KES1 070334Z 16012KT 33/17 A2987 RMK A01 T03320165  RH  037%=      5-min Rain = 0
KES1 070335Z 17013KT 33/17 A2987 RMK A01 T03320165  RH  037%=      5-min Rain = 0
KES1 070336Z 16011KT 33/17 A2987 RMK A01 T03320165  RH  037%=      5-min Rain = 0
KES1 070337Z 16011KT 33/17 A2987 RMK A01 T03310165  RH  037%=      5-min Rain = 0
KES1 070338Z 17011KT 33/17 A2987 RMK A01 T03320165  RH  037%=      5-min Rain = 0
KES1 070339Z 16013KT 33/17 A2987 RMK A01 T03310165  RH  037%=      5-min Rain = 0
KES1 070340Z 17011KT 33/16 A2987 RMK A01 T03310164  RH  037%=      5-min Rain = 0
KES1 070341Z 16012G17KT 33/16 A2987 RMK A01 T03310164  RH  037%=      5-min Rain = 0
KES1 070342Z 16011G16KT 33/17 A2987 RMK A01 T03310165  RH  037%=      5-min Rain = 0
KES1 070343Z 16011G16KT 33/16 A2987 RMK A01 T03300164  RH  037%=      5-min Rain = 0
KES1 070344Z 16010KT 33/17 A2987 RMK A01 T03310165  RH  037%=      5-min Rain = 0
KES1 070345Z 16011KT 33/16 A2987 RMK A01 T03300164  RH  037%=      5-min Rain = 0
KES1 070346Z 17012KT 33/16 A2988 RMK A01 T03300164  RH  037%=      5-min Rain = 0
KES1 070347Z 17012KT 33/17 A2988 RMK A01 T03300165  RH  037%=      5-min Rain = 0
KES1 070348Z 16010KT 33/16 A2988 RMK A01 T03300164  RH  037%=      5-min Rain = 0
KES1 070349Z 16012KT 33/16 A2988 RMK A01 T03300164  RH  037%=      5-min Rain = 0
KES1 070350Z 16011KT 33/16 A2988 RMK A01 T03300164  RH  037%=      5-min Rain = 0
KES1 070351Z 16011KT 33/16 A2988 RMK A01 T03300164  RH  037%=      5-min Rain = 0
KES1 070352Z 16011KT 33/16 A2988 RMK A01 T03290164  RH  037%=      5-min Rain = 0
KES1 070353Z 17010KT 33/16 A2988 RMK A01 T03290164  RH  037%=      5-min Rain = 0
KES1 070354Z 17009KT 33/16 A2988 RMK A01 T03290164  RH  037%=      5-min Rain = 0
KES1 070355Z 17009KT 33/16 A2988 RMK A01 T03280164  RH  037%=      5-min Rain = 0
KES1 070356Z 16010KT 33/16 A2988 RMK A01 T03280164  RH  037%=      5-min Rain = 0
KES1 070357Z 17012KT 33/16 A2988 RMK A01 T03280163  RH  037%=      5-min Rain = 0
KES1 070358Z 17011KT 33/16 A2988 RMK A01 T03280163  RH  037%=      5-min Rain = 0
KES1 070359Z 16008KT 33/16 A2988 RMK A01 T03280163  RH  037%=      5-min Rain = 0
KES1 070400Z 16009KT 33/16 A2988 RMK A01 T03280163  RH  037%=      5-min Rain = 0
KES1 070401Z 17008G13KT 33/16 A2988 RMK A01 T03270163  RH  037%=      5-min Rain = 0
KES1 070402Z 16008KT 33/16 A2988 RMK A01 T03270163  RH  037%=      5-min Rain = 0
KES1 070403Z 17010KT 33/16 A2988 RMK A01 T03260163  RH  038%=      5-min Rain = 0
KES1 070404Z 16009KT 33/16 A2988 RMK A01 T03260163  RH  038%=      5-min Rain = 0
KES1 070405Z 17010KT 33/16 A2988 RMK A01 T03260163  RH  038%=      5-min Rain = 0
KES1 070406Z 16009KT 33/16 A2988 RMK A01 T03260163  RH  038%=      5-min Rain = 0
KES1 070407Z 17008KT 33/16 A2988 RMK A01 T03260163  RH  038%=      5-min Rain = 0
KES1 070408Z 16010KT 33/16 A2988 RMK A01 T03260163  RH  038%=      5-min Rain = 0
KES1 070409Z 17008KT 33/16 A2988 RMK A01 T03250163  RH  038%=      5-min Rain = 0
KES1 070410Z 16010KT 33/16 A2988 RMK A01 T03250162  RH  038%=      5-min Rain = 0
KES1 070411Z 16009KT 33/16 A2988 RMK A01 T03250162  RH  038%=      5-min Rain = 0
KES1 070412Z 16008KT 32/16 A2988 RMK A01 T03240162  RH  038%=      5-min Rain = 0
KES1 070413Z 16008KT 32/16 A2988 RMK A01 T03230162  RH  038%=      5-min Rain = 0
KES1 070414Z 17010KT 32/16 A2988 RMK A01 T03230162  RH  038%=      5-min Rain = 0
KES1 070415Z 16009KT 32/16 A2988 RMK A01 T03230162  RH  038%=      5-min Rain = 0
KES1 070416Z 16010KT 32/16 A2988 RMK A01 T03230162  RH  038%=      5-min Rain = 0
KES1 070417Z 16010KT 32/16 A2988 RMK A01 T03230162  RH  038%=      5-min Rain = 0
KES1 070418Z 17008KT 32/16 A2988 RMK A01 T03230162  RH  038%=      5-min Rain = 0
KES1 070419Z 16008KT 32/16 A2988 RMK A01 T03220161  RH  038%=      5-min Rain = 0
KES1 070420Z 16007KT 32/16 A2988 RMK A01 T03210161  RH  038%=      5-min Rain = 0
KES1 070421Z 17007KT 32/16 A2988 RMK A01 T03210161  RH  038%=      5-min Rain = 0
KES1 070422Z 16008KT 32/16 A2988 RMK A01 T03200161  RH  038%=      5-min Rain = 0
KES1 070423Z 16009KT 32/16 A2988 RMK A01 T03200161  RH  038%=      5-min Rain = 0
KES1 070424Z 16010KT 32/16 A2988 RMK A01 T03190161  RH  038%=      5-min Rain = 0
KES1 070425Z 16008KT 32/16 A2988 RMK A01 T03200161  RH  038%=      5-min Rain = 0
KES1 070426Z 16008KT 32/16 A2988 RMK A01 T03190160  RH  038%=      5-min Rain = 0
KES1 070427Z 16009KT 32/16 A2988 RMK A01 T03190160  RH  038%=      5-min Rain = 0
KES1 070428Z 16008KT 32/16 A2988 RMK A01 T03190160  RH  038%=      5-min Rain = 0
KES1 070429Z 16008KT 32/16 A2988 RMK A01 T03200160  RH  038%=      5-min Rain = 0
KES1 070430Z 16009KT 32/16 A2988 RMK A01 T03200160  RH  038%=      5-min Rain = 0
KES1 070431Z 16008KT 32/16 A2989 RMK A01 T03190160  RH  038%=      5-min Rain = 0
KES1 070432Z 17009KT 32/16 A2989 RMK A01 T03190160  RH  038%=      5-min Rain = 0
KES1 070433Z 16009KT 32/16 A2989 RMK A01 T03190160  RH  038%=      5-min Rain = 0
KES1 070434Z 17008KT 32/16 A2989 RMK A01 T03190160  RH  038%=      5-min Rain = 0
KES1 070435Z 16008KT 32/16 A2989 RMK A01 T03190160  RH  038%=      5-min Rain = 0
KES1 070436Z 16008KT 32/16 A2989 RMK A01 T03190160  RH  038%=      5-min Rain = 0
KES1 070437Z 16009KT 32/16 A2989 RMK A01 T03190160  RH  038%=      5-min Rain = 0
KES1 070438Z 16008KT 32/16 A2989 RMK A01 T03190160  RH  038%=      5-min Rain = 0
KES1 070439Z 17008KT 32/16 A2989 RMK A01 T03180160  RH  038%=      5-min Rain = 0
KES1 070440Z 16009KT 32/16 A2989 RMK A01 T03180159  RH  038%=      5-min Rain = 0
KES1 070441Z 17008KT 32/16 A2989 RMK A01 T03180159  RH  038%=      5-min Rain = 0
KES1 070442Z 16008KT 32/16 A2989 RMK A01 T03180159  RH  038%=      5-min Rain = 0
KES1 070443Z 17010KT 32/16 A2989 RMK A01 T03180160  RH  039%=      5-min Rain = 0
KES1 070444Z 16008KT 32/16 A2989 RMK A01 T03180159  RH  038%=      5-min Rain = 0
KES1 070445Z 17007KT 32/16 A2989 RMK A01 T03180159  RH  039%=      5-min Rain = 0
KES1 070446Z 17007KT 32/16 A2989 RMK A01 T03170159  RH  039%=      5-min Rain = 0
KES1 070447Z 17009KT 32/16 A2989 RMK A01 T03170159  RH  039%=      5-min Rain = 0
KES1 070448Z 17009KT 32/16 A2989 RMK A01 T03170159  RH  039%=      5-min Rain = 0
KES1 070449Z 16008KT 32/16 A2989 RMK A01 T03160159  RH  039%=      5-min Rain = 0
KES1 070450Z 16010KT 32/16 A2989 RMK A01 T03160160  RH  039%=      5-min Rain = 0
KES1 070451Z 17008KT 32/16 A2989 RMK A01 T03160159  RH  039%=      5-min Rain = 0
KES1 070452Z 17007KT 32/16 A2989 RMK A01 T03160160  RH  039%=      5-min Rain = 0
KES1 070453Z 17007G12KT 32/16 A2989 RMK A01 T03150159  RH  039%=      5-min Rain = 0
KES1 070454Z 17007KT 32/16 A2989 RMK A01 T03150159  RH  039%=      5-min Rain = 0
KES1 070455Z 17008KT 31/16 A2989 RMK A01 T03140159  RH  039%=      5-min Rain = 0
KES1 070456Z 17008KT 31/16 A2989 RMK A01 T03140159  RH  039%=      5-min Rain = 0
KES1 070457Z 17008KT 31/16 A2989 RMK A01 T03140159  RH  039%=      5-min Rain = 0
KES1 070458Z 17007KT 31/16 A2989 RMK A01 T03130159  RH  039%=      5-min Rain = 0
KES1 070459Z 17007KT 31/16 A2989 RMK A01 T03130159  RH  040%=      5-min Rain = 0

Page generated in 0.0648 seconds.